<?xml version="1.0" encoding="UTF-8"?><gpx creator="Wikiloc - http://www.wikiloc.com" version="1.1" xmlns="http://www.topografix.com/GPX/1/1" xmlns:xsi="http://www.w3.org/2001/XMLSchema-instance" xsi:schemaLocation="http://www.topografix.com/GPX/1/1 http://www.topografix.com/GPX/1/1/gpx.xsd"><wpt lat="42.60368666666667" lon="-2.698383333333333"><ele>1021.0</ele><name><![CDATA[Gran trampolin bicis]]></name><cmt><![CDATA[Gran trampolin bicis]]></cmt></wpt><wpt lat="42.602495" lon="-2.7002116666666667"><ele>1097.1</ele><name><![CDATA[Direcion Celarruntxa]]></name><cmt><![CDATA[Direcion Celarruntxa]]></cmt></wpt><wpt lat="42.60209499999999" lon="-2.6993533333333333"><ele>1176.3</ele><name><![CDATA[Zelanrruntza 1199m]]></name><cmt><![CDATA[Zelanrruntza 1199m]]></cmt></wpt><wpt lat="42.60048833333334" lon="-2.70177"><ele>1092.4</ele><name><![CDATA[Izquierda]]></name><cmt><![CDATA[Izquierda]]></cmt></wpt><wpt lat="42.59487000000001" lon="-2.6856066666666667"><ele>1187.7</ele><name><![CDATA[Peña Leon]]></name><cmt><![CDATA[Peña Leon]]></cmt></wpt><wpt lat="42.596785" lon="-2.688585"><ele>1154.5</ele><name><![CDATA[Ceva]]></name><cmt><![CDATA[Ceva]]></cmt></wpt><wpt lat="42.59556166666666" lon="-2.6884499999999996"><ele>1141.9</ele><name><![CDATA[Dentro cueva]]></name><cmt><![CDATA[Dentro cueva]]></cmt></wpt><wpt lat="42.59687666666667" lon="-2.688753333333333"><ele>1162.7</ele><name><![CDATA[Entrada a la cueva]]></name><cmt><![CDATA[Entrada a la cueva]]></cmt></wpt><wpt lat="42.600139999999996" lon="-2.7030766666666666"><ele>1038.2</ele><name><![CDATA[Senda al Cocinas]]></name><cmt><![CDATA[Senda al Cocinas]]></cmt></wpt><wpt lat="42.59972666666666" lon="-2.706863333333333"><ele>1161.6</ele><name><![CDATA[El Cocinas 1192m]]></name><cmt><![CDATA[El Cocinas 1192m]]></cmt></wpt><wpt lat="42.602985000000004" lon="-2.714496666666667"><ele>1062.0</ele><name><![CDATA[Fuente]]></name><cmt><![CDATA[Fuente]]></cmt></wpt><wpt lat="42.60367833333333" lon="-2.7149116666666666"><ele>1064.9</ele><name><![CDATA[Refugio]]></name><cmt><![CDATA[Refugio]]></cmt></wpt><wpt lat="42.60413666666667" lon="-2.715415"><ele>1068.2</ele><name><![CDATA[Agujero]]></name><cmt><![CDATA[Agujero]]></cmt></wpt><wpt lat="42.60588333333333" lon="-2.7186266666666667"><ele>1148.9</ele><name><![CDATA[Atxabal 1172m]]></name><cmt><![CDATA[Atxabal 1172m]]></cmt></wpt><wpt lat="42.62171333333334" lon="-2.7100566666666666"><ele>812.6</ele><name><![CDATA[Fuente]]></name><cmt><![CDATA[Fuente]]></cmt></wpt><trk><name><![CDATA[Aa]]></name><trkseg><trkpt lat="42.621595" lon="-2.709845"><ele>785.7</ele><time>2017-02-21T08:39:14Z</time></trkpt><trkpt lat="42.621497" lon="-2.709842"><ele>790.8</ele><time>2017-02-21T08:39:28Z</time></trkpt><trkpt lat="42.621408" lon="-2.709817"><ele>793.6</ele><time>2017-02-21T08:39:35Z</time></trkpt><trkpt lat="42.621315" lon="-2.709788"><ele>793.7</ele><time>2017-02-21T08:39:44Z</time></trkpt><trkpt lat="42.621212" lon="-2.709767"><ele>794.3</ele><time>2017-02-21T08:39:52Z</time></trkpt><trkpt lat="42.621113" lon="-2.709752"><ele>795.0</ele><time>2017-02-21T08:39:59Z</time></trkpt><trkpt lat="42.621008" lon="-2.709737"><ele>795.8</ele><time>2017-02-21T08:40:06Z</time></trkpt><trkpt lat="42.620923" lon="-2.709787"><ele>796.2</ele><time>2017-02-21T08:40:13Z</time></trkpt><trkpt lat="42.620837" lon="-2.709843"><ele>797.3</ele><time>2017-02-21T08:40:20Z</time></trkpt><trkpt lat="42.620743" lon="-2.709865"><ele>798.6</ele><time>2017-02-21T08:40:26Z</time></trkpt><trkpt lat="42.620648" lon="-2.709873"><ele>799.3</ele><time>2017-02-21T08:40:33Z</time></trkpt><trkpt lat="42.620557" lon="-2.709883"><ele>799.9</ele><time>2017-02-21T08:40:40Z</time></trkpt><trkpt lat="42.620465" lon="-2.709887"><ele>798.5</ele><time>2017-02-21T08:40:48Z</time></trkpt><trkpt lat="42.620377" lon="-2.709912"><ele>798.0</ele><time>2017-02-21T08:40:55Z</time></trkpt><trkpt lat="42.620277" lon="-2.709925"><ele>796.9</ele><time>2017-02-21T08:41:03Z</time></trkpt><trkpt lat="42.620185" lon="-2.709938"><ele>798.2</ele><time>2017-02-21T08:41:10Z</time></trkpt><trkpt lat="42.620093" lon="-2.709947"><ele>800.0</ele><time>2017-02-21T08:41:17Z</time></trkpt><trkpt lat="42.619995" lon="-2.709933"><ele>802.0</ele><time>2017-02-21T08:41:26Z</time></trkpt><trkpt lat="42.619912" lon="-2.709865"><ele>805.5</ele><time>2017-02-21T08:41:32Z</time></trkpt><trkpt lat="42.619822" lon="-2.709858"><ele>805.9</ele><time>2017-02-21T08:41:39Z</time></trkpt><trkpt lat="42.619723" lon="-2.709847"><ele>807.6</ele><time>2017-02-21T08:41:46Z</time></trkpt><trkpt lat="42.619623" lon="-2.709855"><ele>810.1</ele><time>2017-02-21T08:41:53Z</time></trkpt><trkpt lat="42.619525" lon="-2.709837"><ele>810.6</ele><time>2017-02-21T08:42:00Z</time></trkpt><trkpt lat="42.619438" lon="-2.709782"><ele>812.6</ele><time>2017-02-21T08:42:06Z</time></trkpt><trkpt lat="42.619343" lon="-2.709747"><ele>816.9</ele><time>2017-02-21T08:42:12Z</time></trkpt><trkpt lat="42.619243" lon="-2.709733"><ele>820.1</ele><time>2017-02-21T08:42:19Z</time></trkpt><trkpt lat="42.619148" lon="-2.70972"><ele>823.6</ele><time>2017-02-21T08:42:26Z</time></trkpt><trkpt lat="42.619065" lon="-2.709662"><ele>828.6</ele><time>2017-02-21T08:42:32Z</time></trkpt><trkpt lat="42.618997" lon="-2.709582"><ele>832.1</ele><time>2017-02-21T08:42:36Z</time></trkpt><trkpt lat="42.618908" lon="-2.709505"><ele>838.7</ele><time>2017-02-21T08:42:41Z</time></trkpt><trkpt lat="42.618818" lon="-2.709442"><ele>846.0</ele><time>2017-02-21T08:42:46Z</time></trkpt><trkpt lat="42.618727" lon="-2.709407"><ele>851.6</ele><time>2017-02-21T08:42:52Z</time></trkpt><trkpt lat="42.61863" lon="-2.709377"><ele>856.1</ele><time>2017-02-21T08:42:59Z</time></trkpt><trkpt lat="42.618537" lon="-2.709335"><ele>858.5</ele><time>2017-02-21T08:43:06Z</time></trkpt><trkpt lat="42.618443" lon="-2.70929"><ele>858.6</ele><time>2017-02-21T08:43:14Z</time></trkpt><trkpt lat="42.618343" lon="-2.709292"><ele>853.2</ele><time>2017-02-21T08:43:25Z</time></trkpt><trkpt lat="42.618248" lon="-2.70933"><ele>846.8</ele><time>2017-02-21T08:43:36Z</time></trkpt><trkpt lat="42.618157" lon="-2.709353"><ele>839.0</ele><time>2017-02-21T08:43:44Z</time></trkpt><trkpt lat="42.618062" lon="-2.709382"><ele>833.0</ele><time>2017-02-21T08:43:53Z</time></trkpt><trkpt lat="42.617975" lon="-2.709445"><ele>825.0</ele><time>2017-02-21T08:44:02Z</time></trkpt><trkpt lat="42.617885" lon="-2.70945"><ele>822.3</ele><time>2017-02-21T08:44:10Z</time></trkpt><trkpt lat="42.6178" lon="-2.709383"><ele>821.2</ele><time>2017-02-21T08:44:22Z</time></trkpt><trkpt lat="42.617715" lon="-2.709327"><ele>818.9</ele><time>2017-02-21T08:44:31Z</time></trkpt><trkpt lat="42.617625" lon="-2.70928"><ele>817.3</ele><time>2017-02-21T08:44:40Z</time></trkpt><trkpt lat="42.617548" lon="-2.7092"><ele>812.3</ele><time>2017-02-21T08:44:49Z</time></trkpt><trkpt lat="42.61749" lon="-2.709098"><ele>806.4</ele><time>2017-02-21T08:45:00Z</time></trkpt><trkpt lat="42.617417" lon="-2.70902"><ele>803.0</ele><time>2017-02-21T08:45:08Z</time></trkpt><trkpt lat="42.617347" lon="-2.708937"><ele>801.6</ele><time>2017-02-21T08:45:14Z</time></trkpt><trkpt lat="42.617267" lon="-2.708858"><ele>801.3</ele><time>2017-02-21T08:45:21Z</time></trkpt><trkpt lat="42.617197" lon="-2.708778"><ele>801.9</ele><time>2017-02-21T08:45:28Z</time></trkpt><trkpt lat="42.617148" lon="-2.70865"><ele>802.1</ele><time>2017-02-21T08:45:35Z</time></trkpt><trkpt lat="42.61712" lon="-2.708533"><ele>802.4</ele><time>2017-02-21T08:45:43Z</time></trkpt><trkpt lat="42.617058" lon="-2.708427"><ele>802.1</ele><time>2017-02-21T08:45:53Z</time></trkpt><trkpt lat="42.616997" lon="-2.708337"><ele>800.2</ele><time>2017-02-21T08:46:00Z</time></trkpt><trkpt lat="42.616963" lon="-2.708215"><ele>799.8</ele><time>2017-02-21T08:46:08Z</time></trkpt><trkpt lat="42.616908" lon="-2.708092"><ele>799.8</ele><time>2017-02-21T08:46:15Z</time></trkpt><trkpt lat="42.616845" lon="-2.708005"><ele>800.9</ele><time>2017-02-21T08:46:20Z</time></trkpt><trkpt lat="42.616752" lon="-2.707928"><ele>801.1</ele><time>2017-02-21T08:46:27Z</time></trkpt><trkpt lat="42.61666" lon="-2.707867"><ele>801.6</ele><time>2017-02-21T08:46:37Z</time></trkpt><trkpt lat="42.616562" lon="-2.707865"><ele>802.0</ele><time>2017-02-21T08:46:46Z</time></trkpt><trkpt lat="42.61647" lon="-2.707818"><ele>805.2</ele><time>2017-02-21T08:46:58Z</time></trkpt><trkpt lat="42.616412" lon="-2.707717"><ele>805.5</ele><time>2017-02-21T08:47:07Z</time></trkpt><trkpt lat="42.616348" lon="-2.70763"><ele>806.2</ele><time>2017-02-21T08:47:13Z</time></trkpt><trkpt lat="42.616265" lon="-2.707565"><ele>808.6</ele><time>2017-02-21T08:47:22Z</time></trkpt><trkpt lat="42.616165" lon="-2.707553"><ele>811.3</ele><time>2017-02-21T08:47:30Z</time></trkpt><trkpt lat="42.616072" lon="-2.707557"><ele>813.9</ele><time>2017-02-21T08:47:39Z</time></trkpt><trkpt lat="42.615977" lon="-2.707588"><ele>815.6</ele><time>2017-02-21T08:47:50Z</time></trkpt><trkpt lat="42.615903" lon="-2.707663"><ele>816.0</ele><time>2017-02-21T08:47:57Z</time></trkpt><trkpt lat="42.615823" lon="-2.707737"><ele>815.9</ele><time>2017-02-21T08:48:05Z</time></trkpt><trkpt lat="42.615757" lon="-2.707822"><ele>814.9</ele><time>2017-02-21T08:48:12Z</time></trkpt><trkpt lat="42.615677" lon="-2.707882"><ele>815.3</ele><time>2017-02-21T08:48:18Z</time></trkpt><trkpt lat="42.61559" lon="-2.70794"><ele>813.2</ele><time>2017-02-21T08:48:29Z</time></trkpt><trkpt lat="42.615502" lon="-2.708002"><ele>812.3</ele><time>2017-02-21T08:48:35Z</time></trkpt><trkpt lat="42.6154" lon="-2.708002"><ele>812.1</ele><time>2017-02-21T08:48:43Z</time></trkpt><trkpt lat="42.615322" lon="-2.707938"><ele>812.3</ele><time>2017-02-21T08:48:52Z</time></trkpt><trkpt lat="42.615235" lon="-2.707823"><ele>811.4</ele><time>2017-02-21T08:49:10Z</time></trkpt><trkpt lat="42.615148" lon="-2.707787"><ele>808.4</ele><time>2017-02-21T08:49:20Z</time></trkpt><trkpt lat="42.615058" lon="-2.707767"><ele>805.0</ele><time>2017-02-21T08:49:31Z</time></trkpt><trkpt lat="42.614968" lon="-2.70772"><ele>803.3</ele><time>2017-02-21T08:49:41Z</time></trkpt><trkpt lat="42.61488" lon="-2.707692"><ele>803.1</ele><time>2017-02-21T08:49:50Z</time></trkpt><trkpt lat="42.614785" lon="-2.70764"><ele>803.4</ele><time>2017-02-21T08:50:01Z</time></trkpt><trkpt lat="42.614705" lon="-2.70758"><ele>804.1</ele><time>2017-02-21T08:50:09Z</time></trkpt><trkpt lat="42.614637" lon="-2.707497"><ele>804.1</ele><time>2017-02-21T08:50:18Z</time></trkpt><trkpt lat="42.614572" lon="-2.707395"><ele>804.7</ele><time>2017-02-21T08:50:28Z</time></trkpt><trkpt lat="42.614513" lon="-2.70729"><ele>806.3</ele><time>2017-02-21T08:50:37Z</time></trkpt><trkpt lat="42.614467" lon="-2.707177"><ele>807.5</ele><time>2017-02-21T08:50:43Z</time></trkpt><trkpt lat="42.614383" lon="-2.707093"><ele>810.2</ele><time>2017-02-21T08:50:50Z</time></trkpt><trkpt lat="42.614293" lon="-2.707072"><ele>812.8</ele><time>2017-02-21T08:50:57Z</time></trkpt><trkpt lat="42.614207" lon="-2.707023"><ele>815.5</ele><time>2017-02-21T08:51:05Z</time></trkpt><trkpt lat="42.614112" lon="-2.707015"><ele>817.0</ele><time>2017-02-21T08:51:13Z</time></trkpt><trkpt lat="42.614017" lon="-2.706993"><ele>817.4</ele><time>2017-02-21T08:51:21Z</time></trkpt><trkpt lat="42.613933" lon="-2.706918"><ele>818.2</ele><time>2017-02-21T08:51:28Z</time></trkpt><trkpt lat="42.613853" lon="-2.706852"><ele>819.8</ele><time>2017-02-21T08:51:35Z</time></trkpt><trkpt lat="42.613785" lon="-2.706752"><ele>824.5</ele><time>2017-02-21T08:51:44Z</time></trkpt><trkpt lat="42.613703" lon="-2.706667"><ele>827.4</ele><time>2017-02-21T08:51:53Z</time></trkpt><trkpt lat="42.61363" lon="-2.706587"><ele>830.2</ele><time>2017-02-21T08:52:00Z</time></trkpt><trkpt lat="42.613572" lon="-2.706493"><ele>832.9</ele><time>2017-02-21T08:52:06Z</time></trkpt><trkpt lat="42.61349" lon="-2.706423"><ele>836.2</ele><time>2017-02-21T08:52:13Z</time></trkpt><trkpt lat="42.613425" lon="-2.70632"><ele>838.1</ele><time>2017-02-21T08:52:19Z</time></trkpt><trkpt lat="42.613358" lon="-2.706222"><ele>838.5</ele><time>2017-02-21T08:52:26Z</time></trkpt><trkpt lat="42.613315" lon="-2.706108"><ele>839.2</ele><time>2017-02-21T08:52:33Z</time></trkpt><trkpt lat="42.613252" lon="-2.706012"><ele>842.3</ele><time>2017-02-21T08:52:43Z</time></trkpt><trkpt lat="42.613177" lon="-2.70594"><ele>844.4</ele><time>2017-02-21T08:52:56Z</time></trkpt><trkpt lat="42.61313" lon="-2.705817"><ele>845.1</ele><time>2017-02-21T08:53:13Z</time></trkpt><trkpt lat="42.613057" lon="-2.70574"><ele>845.8</ele><time>2017-02-21T08:53:23Z</time></trkpt><trkpt lat="42.612995" lon="-2.705648"><ele>845.1</ele><time>2017-02-21T08:53:32Z</time></trkpt><trkpt lat="42.612943" lon="-2.705535"><ele>843.3</ele><time>2017-02-21T08:53:47Z</time></trkpt><trkpt lat="42.61292" lon="-2.705402"><ele>843.6</ele><time>2017-02-21T08:53:56Z</time></trkpt><trkpt lat="42.612897" lon="-2.705283"><ele>842.9</ele><time>2017-02-21T08:54:06Z</time></trkpt><trkpt lat="42.612855" lon="-2.705167"><ele>842.2</ele><time>2017-02-21T08:54:13Z</time></trkpt><trkpt lat="42.61283" lon="-2.705045"><ele>842.0</ele><time>2017-02-21T08:54:23Z</time></trkpt><trkpt lat="42.612845" lon="-2.704917"><ele>841.3</ele><time>2017-02-21T08:54:30Z</time></trkpt><trkpt lat="42.61283" lon="-2.704795"><ele>840.1</ele><time>2017-02-21T08:54:38Z</time></trkpt><trkpt lat="42.612792" lon="-2.70468"><ele>837.8</ele><time>2017-02-21T08:54:48Z</time></trkpt><trkpt lat="42.612725" lon="-2.704592"><ele>837.2</ele><time>2017-02-21T08:54:55Z</time></trkpt><trkpt lat="42.612687" lon="-2.70448"><ele>838.2</ele><time>2017-02-21T08:55:06Z</time></trkpt><trkpt lat="42.612637" lon="-2.704365"><ele>838.4</ele><time>2017-02-21T08:55:14Z</time></trkpt><trkpt lat="42.612592" lon="-2.704255"><ele>837.8</ele><time>2017-02-21T08:55:21Z</time></trkpt><trkpt lat="42.612553" lon="-2.704143"><ele>837.3</ele><time>2017-02-21T08:55:26Z</time></trkpt><trkpt lat="42.612505" lon="-2.704027"><ele>837.4</ele><time>2017-02-21T08:55:35Z</time></trkpt><trkpt lat="42.612475" lon="-2.703893"><ele>836.9</ele><time>2017-02-21T08:55:44Z</time></trkpt><trkpt lat="42.612448" lon="-2.703775"><ele>836.8</ele><time>2017-02-21T08:55:51Z</time></trkpt><trkpt lat="42.612408" lon="-2.703662"><ele>836.7</ele><time>2017-02-21T08:55:59Z</time></trkpt><trkpt lat="42.6124" lon="-2.70354"><ele>838.0</ele><time>2017-02-21T08:56:09Z</time></trkpt><trkpt lat="42.612365" lon="-2.703427"><ele>840.5</ele><time>2017-02-21T08:56:23Z</time></trkpt><trkpt lat="42.612327" lon="-2.70331"><ele>840.5</ele><time>2017-02-21T08:56:33Z</time></trkpt><trkpt lat="42.612258" lon="-2.703215"><ele>840.6</ele><time>2017-02-21T08:56:42Z</time></trkpt><trkpt lat="42.61221" lon="-2.703107"><ele>840.8</ele><time>2017-02-21T08:56:49Z</time></trkpt><trkpt lat="42.612162" lon="-2.70298"><ele>841.3</ele><time>2017-02-21T08:56:57Z</time></trkpt><trkpt lat="42.612107" lon="-2.702882"><ele>841.6</ele><time>2017-02-21T08:57:04Z</time></trkpt><trkpt lat="42.612065" lon="-2.702735"><ele>842.2</ele><time>2017-02-21T08:57:20Z</time></trkpt><trkpt lat="42.61202" lon="-2.702628"><ele>842.6</ele><time>2017-02-21T08:57:30Z</time></trkpt><trkpt lat="42.611987" lon="-2.702512"><ele>844.5</ele><time>2017-02-21T08:57:43Z</time></trkpt><trkpt lat="42.611945" lon="-2.70239"><ele>844.7</ele><time>2017-02-21T08:57:54Z</time></trkpt><trkpt lat="42.611925" lon="-2.702267"><ele>844.8</ele><time>2017-02-21T08:58:03Z</time></trkpt><trkpt lat="42.61193" lon="-2.702135"><ele>846.1</ele><time>2017-02-21T08:58:10Z</time></trkpt><trkpt lat="42.611925" lon="-2.702002"><ele>846.6</ele><time>2017-02-21T08:58:18Z</time></trkpt><trkpt lat="42.61191" lon="-2.70187"><ele>845.9</ele><time>2017-02-21T08:58:28Z</time></trkpt><trkpt lat="42.611903" lon="-2.701747"><ele>843.9</ele><time>2017-02-21T08:58:36Z</time></trkpt><trkpt lat="42.611908" lon="-2.701618"><ele>841.2</ele><time>2017-02-21T08:58:44Z</time></trkpt><trkpt lat="42.611915" lon="-2.701488"><ele>839.2</ele><time>2017-02-21T08:58:51Z</time></trkpt><trkpt lat="42.611905" lon="-2.701352"><ele>839.6</ele><time>2017-02-21T08:58:59Z</time></trkpt><trkpt lat="42.6119" lon="-2.701228"><ele>840.8</ele><time>2017-02-21T08:59:09Z</time></trkpt><trkpt lat="42.611903" lon="-2.701088"><ele>841.0</ele><time>2017-02-21T08:59:18Z</time></trkpt><trkpt lat="42.611905" lon="-2.70096"><ele>839.7</ele><time>2017-02-21T08:59:27Z</time></trkpt><trkpt lat="42.61189" lon="-2.700823"><ele>839.0</ele><time>2017-02-21T08:59:36Z</time></trkpt><trkpt lat="42.611855" lon="-2.700702"><ele>839.5</ele><time>2017-02-21T08:59:42Z</time></trkpt><trkpt lat="42.611825" lon="-2.700587"><ele>840.6</ele><time>2017-02-21T08:59:50Z</time></trkpt><trkpt lat="42.611792" lon="-2.700463"><ele>840.1</ele><time>2017-02-21T09:00:00Z</time></trkpt><trkpt lat="42.611798" lon="-2.700335"><ele>837.8</ele><time>2017-02-21T09:00:08Z</time></trkpt><trkpt lat="42.61182" lon="-2.700217"><ele>837.6</ele><time>2017-02-21T09:00:15Z</time></trkpt><trkpt lat="42.611842" lon="-2.700097"><ele>837.4</ele><time>2017-02-21T09:00:24Z</time></trkpt><trkpt lat="42.611842" lon="-2.699968"><ele>836.2</ele><time>2017-02-21T09:00:32Z</time></trkpt><trkpt lat="42.611812" lon="-2.699852"><ele>836.4</ele><time>2017-02-21T09:00:40Z</time></trkpt><trkpt lat="42.611765" lon="-2.699728"><ele>837.4</ele><time>2017-02-21T09:00:48Z</time></trkpt><trkpt lat="42.611752" lon="-2.6996"><ele>837.5</ele><time>2017-02-21T09:00:59Z</time></trkpt><trkpt lat="42.611773" lon="-2.69947"><ele>838.8</ele><time>2017-02-21T09:01:07Z</time></trkpt><trkpt lat="42.61182" lon="-2.699363"><ele>839.4</ele><time>2017-02-21T09:01:16Z</time></trkpt><trkpt lat="42.611848" lon="-2.699238"><ele>839.3</ele><time>2017-02-21T09:01:24Z</time></trkpt><trkpt lat="42.611872" lon="-2.699107"><ele>839.5</ele><time>2017-02-21T09:01:34Z</time></trkpt><trkpt lat="42.611893" lon="-2.698972"><ele>840.5</ele><time>2017-02-21T09:01:45Z</time></trkpt><trkpt lat="42.611785" lon="-2.698907"><ele>857.3</ele><time>2017-02-21T09:02:46Z</time></trkpt><trkpt lat="42.611715" lon="-2.699005"><ele>862.0</ele><time>2017-02-21T09:03:02Z</time></trkpt><trkpt lat="42.611578" lon="-2.699075"><ele>862.8</ele><time>2017-02-21T09:03:22Z</time></trkpt><trkpt lat="42.611482" lon="-2.699093"><ele>861.9</ele><time>2017-02-21T09:03:32Z</time></trkpt><trkpt lat="42.611385" lon="-2.69909"><ele>860.8</ele><time>2017-02-21T09:03:41Z</time></trkpt><trkpt lat="42.611297" lon="-2.699115"><ele>859.5</ele><time>2017-02-21T09:03:48Z</time></trkpt><trkpt lat="42.611198" lon="-2.699102"><ele>858.3</ele><time>2017-02-21T09:03:59Z</time></trkpt><trkpt lat="42.611107" lon="-2.699117"><ele>857.6</ele><time>2017-02-21T09:04:10Z</time></trkpt><trkpt lat="42.610988" lon="-2.699142"><ele>858.8</ele><time>2017-02-21T09:04:32Z</time></trkpt><trkpt lat="42.610903" lon="-2.699097"><ele>855.3</ele><time>2017-02-21T09:04:46Z</time></trkpt><trkpt lat="42.610817" lon="-2.699062"><ele>854.0</ele><time>2017-02-21T09:05:04Z</time></trkpt><trkpt lat="42.610758" lon="-2.698968"><ele>855.2</ele><time>2017-02-21T09:05:18Z</time></trkpt><trkpt lat="42.61067" lon="-2.698922"><ele>856.2</ele><time>2017-02-21T09:05:34Z</time></trkpt><trkpt lat="42.610568" lon="-2.69891"><ele>861.5</ele><time>2017-02-21T09:05:56Z</time></trkpt><trkpt lat="42.610443" lon="-2.69897"><ele>866.6</ele><time>2017-02-21T09:06:22Z</time></trkpt><trkpt lat="42.610348" lon="-2.698968"><ele>866.8</ele><time>2017-02-21T09:06:34Z</time></trkpt><trkpt lat="42.610228" lon="-2.698963"><ele>868.7</ele><time>2017-02-21T09:06:49Z</time></trkpt><trkpt lat="42.610118" lon="-2.699012"><ele>872.8</ele><time>2017-02-21T09:07:07Z</time></trkpt><trkpt lat="42.609997" lon="-2.699028"><ele>876.6</ele><time>2017-02-21T09:07:23Z</time></trkpt><trkpt lat="42.609903" lon="-2.699053"><ele>878.5</ele><time>2017-02-21T09:07:28Z</time></trkpt><trkpt lat="42.609763" lon="-2.698965"><ele>904.0</ele><time>2017-02-21T09:07:59Z</time></trkpt><trkpt lat="42.60971" lon="-2.699078"><ele>919.7</ele><time>2017-02-21T09:09:24Z</time></trkpt><trkpt lat="42.609623" lon="-2.699178"><ele>921.0</ele><time>2017-02-21T09:09:40Z</time></trkpt><trkpt lat="42.609512" lon="-2.699298"><ele>922.9</ele><time>2017-02-21T09:10:08Z</time></trkpt><trkpt lat="42.609407" lon="-2.699367"><ele>925.7</ele><time>2017-02-21T09:10:33Z</time></trkpt><trkpt lat="42.609322" lon="-2.699427"><ele>926.0</ele><time>2017-02-21T09:10:49Z</time></trkpt><trkpt lat="42.60923" lon="-2.699428"><ele>922.5</ele><time>2017-02-21T09:11:04Z</time></trkpt><trkpt lat="42.609135" lon="-2.699407"><ele>921.0</ele><time>2017-02-21T09:11:14Z</time></trkpt><trkpt lat="42.608998" lon="-2.699405"><ele>919.5</ele><time>2017-02-21T09:11:36Z</time></trkpt><trkpt lat="42.60891" lon="-2.69943"><ele>920.2</ele><time>2017-02-21T09:11:48Z</time></trkpt><trkpt lat="42.608818" lon="-2.699402"><ele>921.4</ele><time>2017-02-21T09:12:08Z</time></trkpt><trkpt lat="42.608755" lon="-2.699307"><ele>920.2</ele><time>2017-02-21T09:12:19Z</time></trkpt><trkpt lat="42.608693" lon="-2.699202"><ele>920.8</ele><time>2017-02-21T09:12:25Z</time></trkpt><trkpt lat="42.608623" lon="-2.699122"><ele>921.4</ele><time>2017-02-21T09:12:40Z</time></trkpt><trkpt lat="42.608525" lon="-2.699037"><ele>922.7</ele><time>2017-02-21T09:12:54Z</time></trkpt><trkpt lat="42.60843" lon="-2.69904"><ele>925.1</ele><time>2017-02-21T09:13:09Z</time></trkpt><trkpt lat="42.60827" lon="-2.698998"><ele>922.7</ele><time>2017-02-21T09:13:33Z</time></trkpt><trkpt lat="42.608177" lon="-2.699005"><ele>921.2</ele><time>2017-02-21T09:13:41Z</time></trkpt><trkpt lat="42.608063" lon="-2.698963"><ele>921.6</ele><time>2017-02-21T09:13:55Z</time></trkpt><trkpt lat="42.607928" lon="-2.698887"><ele>925.5</ele><time>2017-02-21T09:14:13Z</time></trkpt><trkpt lat="42.607835" lon="-2.698888"><ele>924.3</ele><time>2017-02-21T09:14:29Z</time></trkpt><trkpt lat="42.607788" lon="-2.698772"><ele>923.7</ele><time>2017-02-21T09:14:45Z</time></trkpt><trkpt lat="42.607683" lon="-2.69877"><ele>928.7</ele><time>2017-02-21T09:15:07Z</time></trkpt><trkpt lat="42.607582" lon="-2.69877"><ele>943.8</ele><time>2017-02-21T09:15:52Z</time></trkpt><trkpt lat="42.607483" lon="-2.698843"><ele>948.5</ele><time>2017-02-21T09:16:11Z</time></trkpt><trkpt lat="42.607383" lon="-2.698903"><ele>952.6</ele><time>2017-02-21T09:16:27Z</time></trkpt><trkpt lat="42.607288" lon="-2.698882"><ele>956.1</ele><time>2017-02-21T09:16:50Z</time></trkpt><trkpt lat="42.607203" lon="-2.698932"><ele>958.7</ele><time>2017-02-21T09:17:09Z</time></trkpt><trkpt lat="42.607132" lon="-2.699008"><ele>960.6</ele><time>2017-02-21T09:17:16Z</time></trkpt><trkpt lat="42.607042" lon="-2.699058"><ele>961.2</ele><time>2017-02-21T09:17:29Z</time></trkpt><trkpt lat="42.60696" lon="-2.69913"><ele>959.8</ele><time>2017-02-21T09:17:34Z</time></trkpt><trkpt lat="42.606892" lon="-2.699215"><ele>960.8</ele><time>2017-02-21T09:17:46Z</time></trkpt><trkpt lat="42.6068" lon="-2.699267"><ele>962.1</ele><time>2017-02-21T09:17:55Z</time></trkpt><trkpt lat="42.606723" lon="-2.699335"><ele>962.7</ele><time>2017-02-21T09:18:05Z</time></trkpt><trkpt lat="42.606608" lon="-2.699408"><ele>965.2</ele><time>2017-02-21T09:18:26Z</time></trkpt><trkpt lat="42.606517" lon="-2.69945"><ele>966.4</ele><time>2017-02-21T09:18:34Z</time></trkpt><trkpt lat="42.606433" lon="-2.699397"><ele>964.8</ele><time>2017-02-21T09:18:43Z</time></trkpt><trkpt lat="42.606337" lon="-2.699435"><ele>966.7</ele><time>2017-02-21T09:19:07Z</time></trkpt><trkpt lat="42.60626" lon="-2.6995"><ele>966.8</ele><time>2017-02-21T09:19:15Z</time></trkpt><trkpt lat="42.606167" lon="-2.69953"><ele>966.6</ele><time>2017-02-21T09:19:26Z</time></trkpt><trkpt lat="42.606103" lon="-2.699405"><ele>969.9</ele><time>2017-02-21T09:19:42Z</time></trkpt><trkpt lat="42.606045" lon="-2.6993"><ele>967.1</ele><time>2017-02-21T09:19:53Z</time></trkpt><trkpt lat="42.605953" lon="-2.699202"><ele>966.7</ele><time>2017-02-21T09:20:05Z</time></trkpt><trkpt lat="42.605847" lon="-2.699202"><ele>968.6</ele><time>2017-02-21T09:20:20Z</time></trkpt><trkpt lat="42.605765" lon="-2.699253"><ele>968.9</ele><time>2017-02-21T09:20:33Z</time></trkpt><trkpt lat="42.605673" lon="-2.699293"><ele>969.9</ele><time>2017-02-21T09:20:44Z</time></trkpt><trkpt lat="42.605545" lon="-2.69914"><ele>972.9</ele><time>2017-02-21T09:21:07Z</time></trkpt><trkpt lat="42.605432" lon="-2.69907"><ele>972.9</ele><time>2017-02-21T09:21:38Z</time></trkpt><trkpt lat="42.60533" lon="-2.699023"><ele>977.6</ele><time>2017-02-21T09:22:05Z</time></trkpt><trkpt lat="42.605232" lon="-2.698993"><ele>978.6</ele><time>2017-02-21T09:22:30Z</time></trkpt><trkpt lat="42.605155" lon="-2.698862"><ele>979.2</ele><time>2017-02-21T09:22:50Z</time></trkpt><trkpt lat="42.605122" lon="-2.698705"><ele>982.3</ele><time>2017-02-21T09:23:02Z</time></trkpt><trkpt lat="42.605038" lon="-2.698583"><ele>984.3</ele><time>2017-02-21T09:23:29Z</time></trkpt><trkpt lat="42.604952" lon="-2.698547"><ele>986.5</ele><time>2017-02-21T09:23:46Z</time></trkpt><trkpt lat="42.604857" lon="-2.698565"><ele>986.7</ele><time>2017-02-21T09:23:53Z</time></trkpt><trkpt lat="42.604763" lon="-2.698535"><ele>984.9</ele><time>2017-02-21T09:24:05Z</time></trkpt><trkpt lat="42.604675" lon="-2.698448"><ele>985.9</ele><time>2017-02-21T09:24:22Z</time></trkpt><trkpt lat="42.604562" lon="-2.698385"><ele>988.2</ele><time>2017-02-21T09:24:42Z</time></trkpt><trkpt lat="42.604497" lon="-2.698293"><ele>989.2</ele><time>2017-02-21T09:24:50Z</time></trkpt><trkpt lat="42.604438" lon="-2.698167"><ele>990.6</ele><time>2017-02-21T09:25:01Z</time></trkpt><trkpt lat="42.604375" lon="-2.698018"><ele>990.9</ele><time>2017-02-21T09:25:11Z</time></trkpt><trkpt lat="42.604262" lon="-2.69792"><ele>992.8</ele><time>2017-02-21T09:25:29Z</time></trkpt><trkpt lat="42.60418" lon="-2.697825"><ele>995.7</ele><time>2017-02-21T09:25:54Z</time></trkpt><trkpt lat="42.604043" lon="-2.697763"><ele>1000.0</ele><time>2017-02-21T09:26:20Z</time></trkpt><trkpt lat="42.603962" lon="-2.697705"><ele>1000.8</ele><time>2017-02-21T09:26:32Z</time></trkpt><trkpt lat="42.60387" lon="-2.69766"><ele>1000.4</ele><time>2017-02-21T09:26:50Z</time></trkpt><trkpt lat="42.603772" lon="-2.697623"><ele>1001.9</ele><time>2017-02-21T09:26:59Z</time></trkpt><trkpt lat="42.603655" lon="-2.697542"><ele>1007.5</ele><time>2017-02-21T09:27:18Z</time></trkpt><trkpt lat="42.603575" lon="-2.697415"><ele>1014.1</ele><time>2017-02-21T09:27:37Z</time></trkpt><trkpt lat="42.603453" lon="-2.697373"><ele>1017.8</ele><time>2017-02-21T09:28:06Z</time></trkpt><trkpt lat="42.60337" lon="-2.697463"><ele>1019.8</ele><time>2017-02-21T09:28:25Z</time></trkpt><trkpt lat="42.603392" lon="-2.697582"><ele>1021.5</ele><time>2017-02-21T09:28:37Z</time></trkpt><trkpt lat="42.603388" lon="-2.69776"><ele>1020.1</ele><time>2017-02-21T09:28:52Z</time></trkpt><trkpt lat="42.60346" lon="-2.697873"><ele>1019.1</ele><time>2017-02-21T09:29:00Z</time></trkpt><trkpt lat="42.603522" lon="-2.697967"><ele>1018.2</ele><time>2017-02-21T09:29:07Z</time></trkpt><trkpt lat="42.6036" lon="-2.698047"><ele>1018.6</ele><time>2017-02-21T09:29:16Z</time></trkpt><trkpt lat="42.603625" lon="-2.698165"><ele>1019.0</ele><time>2017-02-21T09:29:24Z</time></trkpt><trkpt lat="42.603682" lon="-2.698372"><ele>1020.8</ele><time>2017-02-21T09:29:50Z</time></trkpt><trkpt lat="42.60377" lon="-2.698323"><ele>1023.7</ele><time>2017-02-21T09:30:48Z</time></trkpt><trkpt lat="42.603803" lon="-2.698443"><ele>1030.0</ele><time>2017-02-21T09:31:11Z</time></trkpt><trkpt lat="42.603703" lon="-2.698593"><ele>1037.9</ele><time>2017-02-21T09:32:02Z</time></trkpt><trkpt lat="42.603718" lon="-2.698715"><ele>1048.2</ele><time>2017-02-21T09:33:43Z</time></trkpt><trkpt lat="42.603657" lon="-2.698833"><ele>1050.1</ele><time>2017-02-21T09:34:05Z</time></trkpt><trkpt lat="42.60359" lon="-2.69892"><ele>1050.5</ele><time>2017-02-21T09:34:20Z</time></trkpt><trkpt lat="42.603545" lon="-2.699033"><ele>1056.9</ele><time>2017-02-21T09:34:58Z</time></trkpt><trkpt lat="42.603443" lon="-2.699175"><ele>1062.3</ele><time>2017-02-21T09:35:36Z</time></trkpt><trkpt lat="42.603398" lon="-2.69937"><ele>1064.9</ele><time>2017-02-21T09:36:03Z</time></trkpt><trkpt lat="42.603347" lon="-2.699485"><ele>1066.7</ele><time>2017-02-21T09:36:23Z</time></trkpt><trkpt lat="42.603217" lon="-2.699593"><ele>1068.5</ele><time>2017-02-21T09:36:54Z</time></trkpt><trkpt lat="42.603093" lon="-2.699562"><ele>1072.6</ele><time>2017-02-21T09:37:43Z</time></trkpt><trkpt lat="42.603018" lon="-2.699692"><ele>1076.2</ele><time>2017-02-21T09:38:08Z</time></trkpt><trkpt lat="42.60293" lon="-2.699735"><ele>1077.5</ele><time>2017-02-21T09:38:30Z</time></trkpt><trkpt lat="42.602843" lon="-2.699773"><ele>1079.1</ele><time>2017-02-21T09:38:47Z</time></trkpt><trkpt lat="42.602743" lon="-2.699803"><ele>1089.5</ele><time>2017-02-21T09:39:41Z</time></trkpt><trkpt lat="42.602687" lon="-2.699903"><ele>1091.2</ele><time>2017-02-21T09:39:57Z</time></trkpt><trkpt lat="42.602628" lon="-2.700008"><ele>1092.7</ele><time>2017-02-21T09:40:11Z</time></trkpt><trkpt lat="42.602573" lon="-2.700123"><ele>1092.9</ele><time>2017-02-21T09:40:28Z</time></trkpt><trkpt lat="42.602498" lon="-2.700207"><ele>1097.1</ele><time>2017-02-21T09:41:01Z</time></trkpt><trkpt lat="42.602592" lon="-2.700162"><ele>1098.3</ele><time>2017-02-21T09:41:28Z</time></trkpt><trkpt lat="42.60251" lon="-2.700218"><ele>1102.9</ele><time>2017-02-21T09:42:13Z</time></trkpt><trkpt lat="42.602455" lon="-2.700122"><ele>1104.4</ele><time>2017-02-21T09:42:20Z</time></trkpt><trkpt lat="42.602313" lon="-2.700083"><ele>1113.4</ele><time>2017-02-21T09:43:10Z</time></trkpt><trkpt lat="42.602403" lon="-2.700088"><ele>1116.1</ele><time>2017-02-21T09:43:55Z</time></trkpt><trkpt lat="42.602452" lon="-2.699972"><ele>1117.4</ele><time>2017-02-21T09:44:12Z</time></trkpt><trkpt lat="42.602398" lon="-2.699867"><ele>1118.1</ele><time>2017-02-21T09:44:24Z</time></trkpt><trkpt lat="42.602245" lon="-2.699777"><ele>1123.7</ele><time>2017-02-21T09:45:10Z</time></trkpt><trkpt lat="42.602157" lon="-2.6997"><ele>1127.1</ele><time>2017-02-21T09:45:38Z</time></trkpt><trkpt lat="42.602183" lon="-2.699575"><ele>1130.0</ele><time>2017-02-21T09:45:59Z</time></trkpt><trkpt lat="42.602187" lon="-2.699442"><ele>1135.3</ele><time>2017-02-21T09:46:20Z</time></trkpt><trkpt lat="42.602158" lon="-2.699302"><ele>1153.7</ele><time>2017-02-21T09:47:11Z</time></trkpt><trkpt lat="42.60224" lon="-2.699398"><ele>1182.7</ele><time>2017-02-21T09:59:00Z</time></trkpt><trkpt lat="42.60224" lon="-2.699522"><ele>1178.9</ele><time>2017-02-21T09:59:45Z</time></trkpt><trkpt lat="42.602215" lon="-2.69965"><ele>1177.4</ele><time>2017-02-21T10:00:16Z</time></trkpt><trkpt lat="42.60227" lon="-2.699763"><ele>1174.6</ele><time>2017-02-21T10:00:56Z</time></trkpt><trkpt lat="42.602358" lon="-2.699812"><ele>1172.0</ele><time>2017-02-21T10:01:27Z</time></trkpt><trkpt lat="42.602453" lon="-2.699888"><ele>1169.4</ele><time>2017-02-21T10:01:49Z</time></trkpt><trkpt lat="42.602515" lon="-2.699978"><ele>1164.7</ele><time>2017-02-21T10:02:07Z</time></trkpt><trkpt lat="42.602552" lon="-2.700193"><ele>1156.2</ele><time>2017-02-21T10:02:52Z</time></trkpt><trkpt lat="42.60252" lon="-2.700368"><ele>1149.0</ele><time>2017-02-21T10:03:14Z</time></trkpt><trkpt lat="42.602435" lon="-2.700415"><ele>1145.8</ele><time>2017-02-21T10:03:24Z</time></trkpt><trkpt lat="42.60235" lon="-2.700517"><ele>1142.9</ele><time>2017-02-21T10:03:37Z</time></trkpt><trkpt lat="42.602238" lon="-2.700658"><ele>1138.9</ele><time>2017-02-21T10:03:53Z</time></trkpt><trkpt lat="42.602173" lon="-2.700748"><ele>1136.2</ele><time>2017-02-21T10:04:02Z</time></trkpt><trkpt lat="42.602092" lon="-2.70082"><ele>1133.9</ele><time>2017-02-21T10:04:16Z</time></trkpt><trkpt lat="42.602012" lon="-2.700888"><ele>1132.9</ele><time>2017-02-21T10:04:27Z</time></trkpt><trkpt lat="42.601912" lon="-2.700975"><ele>1131.5</ele><time>2017-02-21T10:04:40Z</time></trkpt><trkpt lat="42.601815" lon="-2.700982"><ele>1130.7</ele><time>2017-02-21T10:04:48Z</time></trkpt><trkpt lat="42.601643" lon="-2.700952"><ele>1124.6</ele><time>2017-02-21T10:05:10Z</time></trkpt><trkpt lat="42.601552" lon="-2.700987"><ele>1124.1</ele><time>2017-02-21T10:05:21Z</time></trkpt><trkpt lat="42.601463" lon="-2.70103"><ele>1123.6</ele><time>2017-02-21T10:05:29Z</time></trkpt><trkpt lat="42.60137" lon="-2.7011"><ele>1121.9</ele><time>2017-02-21T10:05:36Z</time></trkpt><trkpt lat="42.601312" lon="-2.70124"><ele>1118.4</ele><time>2017-02-21T10:05:41Z</time></trkpt><trkpt lat="42.601255" lon="-2.701383"><ele>1112.0</ele><time>2017-02-21T10:05:56Z</time></trkpt><trkpt lat="42.601152" lon="-2.701417"><ele>1110.4</ele><time>2017-02-21T10:06:08Z</time></trkpt><trkpt lat="42.60106" lon="-2.70142"><ele>1109.6</ele><time>2017-02-21T10:06:15Z</time></trkpt><trkpt lat="42.600902" lon="-2.701502"><ele>1106.6</ele><time>2017-02-21T10:06:37Z</time></trkpt><trkpt lat="42.60081" lon="-2.70155"><ele>1106.8</ele><time>2017-02-21T10:06:48Z</time></trkpt><trkpt lat="42.60074" lon="-2.701637"><ele>1106.0</ele><time>2017-02-21T10:06:54Z</time></trkpt><trkpt lat="42.600655" lon="-2.701742"><ele>1104.1</ele><time>2017-02-21T10:07:04Z</time></trkpt><trkpt lat="42.600582" lon="-2.701867"><ele>1104.2</ele><time>2017-02-21T10:07:19Z</time></trkpt><trkpt lat="42.600555" lon="-2.701983"><ele>1102.5</ele><time>2017-02-21T10:07:32Z</time></trkpt><trkpt lat="42.600607" lon="-2.70209"><ele>1099.5</ele><time>2017-02-21T10:07:40Z</time></trkpt><trkpt lat="42.600655" lon="-2.702197"><ele>1095.8</ele><time>2017-02-21T10:07:47Z</time></trkpt><trkpt lat="42.600702" lon="-2.702325"><ele>1090.9</ele><time>2017-02-21T10:07:55Z</time></trkpt><trkpt lat="42.600752" lon="-2.702428"><ele>1089.5</ele><time>2017-02-21T10:08:08Z</time></trkpt><trkpt lat="42.600752" lon="-2.702428"><ele>1089.5</ele><time>2017-02-21T10:08:09Z</time></trkpt><trkpt lat="42.600768" lon="-2.702587"><ele>1090.0</ele><time>2017-02-21T10:08:34Z</time></trkpt><trkpt lat="42.60078" lon="-2.702465"><ele>1093.2</ele><time>2017-02-21T10:09:24Z</time></trkpt><trkpt lat="42.600737" lon="-2.702357"><ele>1093.1</ele><time>2017-02-21T10:09:33Z</time></trkpt><trkpt lat="42.600685" lon="-2.702248"><ele>1093.6</ele><time>2017-02-21T10:09:43Z</time></trkpt><trkpt lat="42.60065" lon="-2.702132"><ele>1094.2</ele><time>2017-02-21T10:09:54Z</time></trkpt><trkpt lat="42.600572" lon="-2.702052"><ele>1093.5</ele><time>2017-02-21T10:10:15Z</time></trkpt><trkpt lat="42.600538" lon="-2.701935"><ele>1092.5</ele><time>2017-02-21T10:10:27Z</time></trkpt><trkpt lat="42.600507" lon="-2.70182"><ele>1092.2</ele><time>2017-02-21T10:10:44Z</time></trkpt><trkpt lat="42.600437" lon="-2.701685"><ele>1099.0</ele><time>2017-02-21T10:12:27Z</time></trkpt><trkpt lat="42.600372" lon="-2.701598"><ele>1099.4</ele><time>2017-02-21T10:12:46Z</time></trkpt><trkpt lat="42.60033" lon="-2.70149"><ele>1099.6</ele><time>2017-02-21T10:12:56Z</time></trkpt><trkpt lat="42.600275" lon="-2.701392"><ele>1100.6</ele><time>2017-02-21T10:13:08Z</time></trkpt><trkpt lat="42.600222" lon="-2.70129"><ele>1101.5</ele><time>2017-02-21T10:13:17Z</time></trkpt><trkpt lat="42.600205" lon="-2.701163"><ele>1103.4</ele><time>2017-02-21T10:13:30Z</time></trkpt><trkpt lat="42.600197" lon="-2.701027"><ele>1104.1</ele><time>2017-02-21T10:13:41Z</time></trkpt><trkpt lat="42.60017" lon="-2.700905"><ele>1104.5</ele><time>2017-02-21T10:13:51Z</time></trkpt><trkpt lat="42.600135" lon="-2.700788"><ele>1103.9</ele><time>2017-02-21T10:13:59Z</time></trkpt><trkpt lat="42.60011" lon="-2.700658"><ele>1104.0</ele><time>2017-02-21T10:14:10Z</time></trkpt><trkpt lat="42.600075" lon="-2.70053"><ele>1104.0</ele><time>2017-02-21T10:14:18Z</time></trkpt><trkpt lat="42.600022" lon="-2.700402"><ele>1105.0</ele><time>2017-02-21T10:14:30Z</time></trkpt><trkpt lat="42.599973" lon="-2.700293"><ele>1104.7</ele><time>2017-02-21T10:14:38Z</time></trkpt><trkpt lat="42.599925" lon="-2.700185"><ele>1103.4</ele><time>2017-02-21T10:14:48Z</time></trkpt><trkpt lat="42.599882" lon="-2.700073"><ele>1102.8</ele><time>2017-02-21T10:14:58Z</time></trkpt><trkpt lat="42.599823" lon="-2.699952"><ele>1101.1</ele><time>2017-02-21T10:15:07Z</time></trkpt><trkpt lat="42.599777" lon="-2.699843"><ele>1100.3</ele><time>2017-02-21T10:15:11Z</time></trkpt><trkpt lat="42.599717" lon="-2.69974"><ele>1099.9</ele><time>2017-02-21T10:15:15Z</time></trkpt><trkpt lat="42.599653" lon="-2.699648"><ele>1098.8</ele><time>2017-02-21T10:15:20Z</time></trkpt><trkpt lat="42.599595" lon="-2.699553"><ele>1099.1</ele><time>2017-02-21T10:15:29Z</time></trkpt><trkpt lat="42.599542" lon="-2.699445"><ele>1098.9</ele><time>2017-02-21T10:15:38Z</time></trkpt><trkpt lat="42.599465" lon="-2.699368"><ele>1098.0</ele><time>2017-02-21T10:15:45Z</time></trkpt><trkpt lat="42.599388" lon="-2.6993"><ele>1096.7</ele><time>2017-02-21T10:15:56Z</time></trkpt><trkpt lat="42.599302" lon="-2.699192"><ele>1097.2</ele><time>2017-02-21T10:16:07Z</time></trkpt><trkpt lat="42.59921" lon="-2.69905"><ele>1098.5</ele><time>2017-02-21T10:16:23Z</time></trkpt><trkpt lat="42.599182" lon="-2.69889"><ele>1100.5</ele><time>2017-02-21T10:16:33Z</time></trkpt><trkpt lat="42.599145" lon="-2.69874"><ele>1101.7</ele><time>2017-02-21T10:16:42Z</time></trkpt><trkpt lat="42.599113" lon="-2.698562"><ele>1100.1</ele><time>2017-02-21T10:16:57Z</time></trkpt><trkpt lat="42.599118" lon="-2.6984"><ele>1101.5</ele><time>2017-02-21T10:17:15Z</time></trkpt><trkpt lat="42.599097" lon="-2.698272"><ele>1102.7</ele><time>2017-02-21T10:17:19Z</time></trkpt><trkpt lat="42.59908" lon="-2.698052"><ele>1102.8</ele><time>2017-02-21T10:17:31Z</time></trkpt><trkpt lat="42.599088" lon="-2.697927"><ele>1102.9</ele><time>2017-02-21T10:17:39Z</time></trkpt><trkpt lat="42.599087" lon="-2.697793"><ele>1101.3</ele><time>2017-02-21T10:17:45Z</time></trkpt><trkpt lat="42.599082" lon="-2.69766"><ele>1100.7</ele><time>2017-02-21T10:17:55Z</time></trkpt><trkpt lat="42.599073" lon="-2.697525"><ele>1100.3</ele><time>2017-02-21T10:18:03Z</time></trkpt><trkpt lat="42.59907" lon="-2.697317"><ele>1100.6</ele><time>2017-02-21T10:18:19Z</time></trkpt><trkpt lat="42.599058" lon="-2.69718"><ele>1100.5</ele><time>2017-02-21T10:18:28Z</time></trkpt><trkpt lat="42.599037" lon="-2.697062"><ele>1099.6</ele><time>2017-02-21T10:18:36Z</time></trkpt><trkpt lat="42.599035" lon="-2.69687"><ele>1099.4</ele><time>2017-02-21T10:18:50Z</time></trkpt><trkpt lat="42.599033" lon="-2.69674"><ele>1099.3</ele><time>2017-02-21T10:19:00Z</time></trkpt><trkpt lat="42.598988" lon="-2.696568"><ele>1099.9</ele><time>2017-02-21T10:19:12Z</time></trkpt><trkpt lat="42.598933" lon="-2.696438"><ele>1100.2</ele><time>2017-02-21T10:19:21Z</time></trkpt><trkpt lat="42.598903" lon="-2.696255"><ele>1102.1</ele><time>2017-02-21T10:19:34Z</time></trkpt><trkpt lat="42.598883" lon="-2.696102"><ele>1102.9</ele><time>2017-02-21T10:19:46Z</time></trkpt><trkpt lat="42.598862" lon="-2.695965"><ele>1103.6</ele><time>2017-02-21T10:19:54Z</time></trkpt><trkpt lat="42.598883" lon="-2.695767"><ele>1101.3</ele><time>2017-02-21T10:20:11Z</time></trkpt><trkpt lat="42.598888" lon="-2.69564"><ele>1099.6</ele><time>2017-02-21T10:20:19Z</time></trkpt><trkpt lat="42.598875" lon="-2.695518"><ele>1098.5</ele><time>2017-02-21T10:20:24Z</time></trkpt><trkpt lat="42.598862" lon="-2.695378"><ele>1098.0</ele><time>2017-02-21T10:20:33Z</time></trkpt><trkpt lat="42.598863" lon="-2.69524"><ele>1096.0</ele><time>2017-02-21T10:20:40Z</time></trkpt><trkpt lat="42.59886" lon="-2.695093"><ele>1094.8</ele><time>2017-02-21T10:20:45Z</time></trkpt><trkpt lat="42.598875" lon="-2.6949"><ele>1094.9</ele><time>2017-02-21T10:21:02Z</time></trkpt><trkpt lat="42.59888" lon="-2.694745"><ele>1094.5</ele><time>2017-02-21T10:21:14Z</time></trkpt><trkpt lat="42.598862" lon="-2.694617"><ele>1094.1</ele><time>2017-02-21T10:21:20Z</time></trkpt><trkpt lat="42.598833" lon="-2.694497"><ele>1092.5</ele><time>2017-02-21T10:21:27Z</time></trkpt><trkpt lat="42.598823" lon="-2.694363"><ele>1090.5</ele><time>2017-02-21T10:21:36Z</time></trkpt><trkpt lat="42.598815" lon="-2.694242"><ele>1088.3</ele><time>2017-02-21T10:21:41Z</time></trkpt><trkpt lat="42.598818" lon="-2.694112"><ele>1086.9</ele><time>2017-02-21T10:21:48Z</time></trkpt><trkpt lat="42.598815" lon="-2.693985"><ele>1086.4</ele><time>2017-02-21T10:21:59Z</time></trkpt><trkpt lat="42.598807" lon="-2.693857"><ele>1084.9</ele><time>2017-02-21T10:22:06Z</time></trkpt><trkpt lat="42.598798" lon="-2.693725"><ele>1083.4</ele><time>2017-02-21T10:22:11Z</time></trkpt><trkpt lat="42.598842" lon="-2.69361"><ele>1082.6</ele><time>2017-02-21T10:22:18Z</time></trkpt><trkpt lat="42.598888" lon="-2.6935"><ele>1080.6</ele><time>2017-02-21T10:22:25Z</time></trkpt><trkpt lat="42.598922" lon="-2.693368"><ele>1077.3</ele><time>2017-02-21T10:22:31Z</time></trkpt><trkpt lat="42.598938" lon="-2.693238"><ele>1074.5</ele><time>2017-02-21T10:22:41Z</time></trkpt><trkpt lat="42.598938" lon="-2.693098"><ele>1073.6</ele><time>2017-02-21T10:22:49Z</time></trkpt><trkpt lat="42.598958" lon="-2.692973"><ele>1073.9</ele><time>2017-02-21T10:22:57Z</time></trkpt><trkpt lat="42.59898" lon="-2.692853"><ele>1074.2</ele><time>2017-02-21T10:23:07Z</time></trkpt><trkpt lat="42.59899" lon="-2.692728"><ele>1073.3</ele><time>2017-02-21T10:23:16Z</time></trkpt><trkpt lat="42.598985" lon="-2.692597"><ele>1073.5</ele><time>2017-02-21T10:23:25Z</time></trkpt><trkpt lat="42.598958" lon="-2.692417"><ele>1075.2</ele><time>2017-02-21T10:23:40Z</time></trkpt><trkpt lat="42.598925" lon="-2.692258"><ele>1076.1</ele><time>2017-02-21T10:23:51Z</time></trkpt><trkpt lat="42.598912" lon="-2.69212"><ele>1076.8</ele><time>2017-02-21T10:23:59Z</time></trkpt><trkpt lat="42.598902" lon="-2.691988"><ele>1074.8</ele><time>2017-02-21T10:24:06Z</time></trkpt><trkpt lat="42.598943" lon="-2.69188"><ele>1074.4</ele><time>2017-02-21T10:24:15Z</time></trkpt><trkpt lat="42.598935" lon="-2.691725"><ele>1073.0</ele><time>2017-02-21T10:24:23Z</time></trkpt><trkpt lat="42.59894" lon="-2.69156"><ele>1073.3</ele><time>2017-02-21T10:24:36Z</time></trkpt><trkpt lat="42.598928" lon="-2.691432"><ele>1073.7</ele><time>2017-02-21T10:24:43Z</time></trkpt><trkpt lat="42.598905" lon="-2.691313"><ele>1074.1</ele><time>2017-02-21T10:24:50Z</time></trkpt><trkpt lat="42.598873" lon="-2.691175"><ele>1072.9</ele><time>2017-02-21T10:24:57Z</time></trkpt><trkpt lat="42.598873" lon="-2.691028"><ele>1071.9</ele><time>2017-02-21T10:25:06Z</time></trkpt><trkpt lat="42.598853" lon="-2.6909"><ele>1071.2</ele><time>2017-02-21T10:25:13Z</time></trkpt><trkpt lat="42.598813" lon="-2.690725"><ele>1069.5</ele><time>2017-02-21T10:25:27Z</time></trkpt><trkpt lat="42.598767" lon="-2.690585"><ele>1069.4</ele><time>2017-02-21T10:25:32Z</time></trkpt><trkpt lat="42.598737" lon="-2.690467"><ele>1069.5</ele><time>2017-02-21T10:25:38Z</time></trkpt><trkpt lat="42.598712" lon="-2.690343"><ele>1070.0</ele><time>2017-02-21T10:25:52Z</time></trkpt><trkpt lat="42.598665" lon="-2.690232"><ele>1070.3</ele><time>2017-02-21T10:26:02Z</time></trkpt><trkpt lat="42.598632" lon="-2.690108"><ele>1070.7</ele><time>2017-02-21T10:26:11Z</time></trkpt><trkpt lat="42.598578" lon="-2.689983"><ele>1070.7</ele><time>2017-02-21T10:26:16Z</time></trkpt><trkpt lat="42.598502" lon="-2.689797"><ele>1073.2</ele><time>2017-02-21T10:26:32Z</time></trkpt><trkpt lat="42.598463" lon="-2.68967"><ele>1073.6</ele><time>2017-02-21T10:26:44Z</time></trkpt><trkpt lat="42.598433" lon="-2.689527"><ele>1075.1</ele><time>2017-02-21T10:26:51Z</time></trkpt><trkpt lat="42.598395" lon="-2.689405"><ele>1075.5</ele><time>2017-02-21T10:26:59Z</time></trkpt><trkpt lat="42.598313" lon="-2.689228"><ele>1077.6</ele><time>2017-02-21T10:27:21Z</time></trkpt><trkpt lat="42.598252" lon="-2.689137"><ele>1076.7</ele><time>2017-02-21T10:27:28Z</time></trkpt><trkpt lat="42.598193" lon="-2.689032"><ele>1076.0</ele><time>2017-02-21T10:27:33Z</time></trkpt><trkpt lat="42.598177" lon="-2.688912"><ele>1074.2</ele><time>2017-02-21T10:27:43Z</time></trkpt><trkpt lat="42.59816" lon="-2.688788"><ele>1074.2</ele><time>2017-02-21T10:27:51Z</time></trkpt><trkpt lat="42.598133" lon="-2.688668"><ele>1075.3</ele><time>2017-02-21T10:28:02Z</time></trkpt><trkpt lat="42.59806" lon="-2.688585"><ele>1076.3</ele><time>2017-02-21T10:28:11Z</time></trkpt><trkpt lat="42.597983" lon="-2.68852"><ele>1075.4</ele><time>2017-02-21T10:28:35Z</time></trkpt><trkpt lat="42.597908" lon="-2.688435"><ele>1078.0</ele><time>2017-02-21T10:28:46Z</time></trkpt><trkpt lat="42.597855" lon="-2.68832"><ele>1079.5</ele><time>2017-02-21T10:28:56Z</time></trkpt><trkpt lat="42.597787" lon="-2.688228"><ele>1084.0</ele><time>2017-02-21T10:29:10Z</time></trkpt><trkpt lat="42.597745" lon="-2.688103"><ele>1084.8</ele><time>2017-02-21T10:29:16Z</time></trkpt><trkpt lat="42.597703" lon="-2.687972"><ele>1084.9</ele><time>2017-02-21T10:29:23Z</time></trkpt><trkpt lat="42.597682" lon="-2.687843"><ele>1085.7</ele><time>2017-02-21T10:29:34Z</time></trkpt><trkpt lat="42.597653" lon="-2.68772"><ele>1085.2</ele><time>2017-02-21T10:29:43Z</time></trkpt><trkpt lat="42.59767" lon="-2.687597"><ele>1083.3</ele><time>2017-02-21T10:29:53Z</time></trkpt><trkpt lat="42.597703" lon="-2.687473"><ele>1080.0</ele><time>2017-02-21T10:30:03Z</time></trkpt><trkpt lat="42.597698" lon="-2.687275"><ele>1079.5</ele><time>2017-02-21T10:30:19Z</time></trkpt><trkpt lat="42.597682" lon="-2.687155"><ele>1079.1</ele><time>2017-02-21T10:30:25Z</time></trkpt><trkpt lat="42.597662" lon="-2.687003"><ele>1076.6</ele><time>2017-02-21T10:30:32Z</time></trkpt><trkpt lat="42.59766" lon="-2.686868"><ele>1076.5</ele><time>2017-02-21T10:30:39Z</time></trkpt><trkpt lat="42.597623" lon="-2.68675"><ele>1076.1</ele><time>2017-02-21T10:30:47Z</time></trkpt><trkpt lat="42.597607" lon="-2.686623"><ele>1076.6</ele><time>2017-02-21T10:30:56Z</time></trkpt><trkpt lat="42.597565" lon="-2.686488"><ele>1075.7</ele><time>2017-02-21T10:31:04Z</time></trkpt><trkpt lat="42.597517" lon="-2.686353"><ele>1074.9</ele><time>2017-02-21T10:31:13Z</time></trkpt><trkpt lat="42.597472" lon="-2.68624"><ele>1075.2</ele><time>2017-02-21T10:31:20Z</time></trkpt><trkpt lat="42.597405" lon="-2.686048"><ele>1077.6</ele><time>2017-02-21T10:31:32Z</time></trkpt><trkpt lat="42.597367" lon="-2.685935"><ele>1077.8</ele><time>2017-02-21T10:31:38Z</time></trkpt><trkpt lat="42.597322" lon="-2.685813"><ele>1076.5</ele><time>2017-02-21T10:31:47Z</time></trkpt><trkpt lat="42.59728" lon="-2.685698"><ele>1076.5</ele><time>2017-02-21T10:31:54Z</time></trkpt><trkpt lat="42.597237" lon="-2.685587"><ele>1076.3</ele><time>2017-02-21T10:32:02Z</time></trkpt><trkpt lat="42.597203" lon="-2.685472"><ele>1076.2</ele><time>2017-02-21T10:32:11Z</time></trkpt><trkpt lat="42.59712" lon="-2.685348"><ele>1077.8</ele><time>2017-02-21T10:32:23Z</time></trkpt><trkpt lat="42.597057" lon="-2.685248"><ele>1078.5</ele><time>2017-02-21T10:32:31Z</time></trkpt><trkpt lat="42.597" lon="-2.685112"><ele>1078.4</ele><time>2017-02-21T10:32:34Z</time></trkpt><trkpt lat="42.596948" lon="-2.684997"><ele>1078.2</ele><time>2017-02-21T10:32:38Z</time></trkpt><trkpt lat="42.596932" lon="-2.68486"><ele>1078.8</ele><time>2017-02-21T10:32:48Z</time></trkpt><trkpt lat="42.596883" lon="-2.68475"><ele>1079.0</ele><time>2017-02-21T10:33:02Z</time></trkpt><trkpt lat="42.596837" lon="-2.684625"><ele>1078.8</ele><time>2017-02-21T10:33:09Z</time></trkpt><trkpt lat="42.596792" lon="-2.684507"><ele>1078.2</ele><time>2017-02-21T10:33:18Z</time></trkpt><trkpt lat="42.596737" lon="-2.684392"><ele>1076.4</ele><time>2017-02-21T10:33:27Z</time></trkpt><trkpt lat="42.596698" lon="-2.684275"><ele>1077.7</ele><time>2017-02-21T10:33:36Z</time></trkpt><trkpt lat="42.596645" lon="-2.684172"><ele>1077.4</ele><time>2017-02-21T10:33:41Z</time></trkpt><trkpt lat="42.596555" lon="-2.684003"><ele>1079.6</ele><time>2017-02-21T10:33:54Z</time></trkpt><trkpt lat="42.596493" lon="-2.683818"><ele>1081.9</ele><time>2017-02-21T10:34:07Z</time></trkpt><trkpt lat="42.596427" lon="-2.683683"><ele>1084.0</ele><time>2017-02-21T10:34:17Z</time></trkpt><trkpt lat="42.596387" lon="-2.683565"><ele>1085.6</ele><time>2017-02-21T10:34:27Z</time></trkpt><trkpt lat="42.596348" lon="-2.683417"><ele>1087.0</ele><time>2017-02-21T10:34:39Z</time></trkpt><trkpt lat="42.596297" lon="-2.683303"><ele>1086.6</ele><time>2017-02-21T10:34:46Z</time></trkpt><trkpt lat="42.596252" lon="-2.68318"><ele>1084.4</ele><time>2017-02-21T10:34:54Z</time></trkpt><trkpt lat="42.596208" lon="-2.683057"><ele>1083.6</ele><time>2017-02-21T10:35:01Z</time></trkpt><trkpt lat="42.596167" lon="-2.68294"><ele>1082.5</ele><time>2017-02-21T10:35:09Z</time></trkpt><trkpt lat="42.596117" lon="-2.682838"><ele>1081.4</ele><time>2017-02-21T10:35:15Z</time></trkpt><trkpt lat="42.596063" lon="-2.682725"><ele>1079.0</ele><time>2017-02-21T10:35:23Z</time></trkpt><trkpt lat="42.596032" lon="-2.6826"><ele>1078.7</ele><time>2017-02-21T10:35:32Z</time></trkpt><trkpt lat="42.595963" lon="-2.6825"><ele>1078.0</ele><time>2017-02-21T10:35:38Z</time></trkpt><trkpt lat="42.59587" lon="-2.682503"><ele>1077.1</ele><time>2017-02-21T10:35:46Z</time></trkpt><trkpt lat="42.595832" lon="-2.68263"><ele>1076.3</ele><time>2017-02-21T10:35:54Z</time></trkpt><trkpt lat="42.595798" lon="-2.682757"><ele>1076.5</ele><time>2017-02-21T10:36:01Z</time></trkpt><trkpt lat="42.595758" lon="-2.682877"><ele>1075.3</ele><time>2017-02-21T10:36:09Z</time></trkpt><trkpt lat="42.595732" lon="-2.683"><ele>1073.8</ele><time>2017-02-21T10:36:19Z</time></trkpt><trkpt lat="42.595727" lon="-2.683125"><ele>1071.8</ele><time>2017-02-21T10:36:27Z</time></trkpt><trkpt lat="42.59573" lon="-2.683262"><ele>1068.6</ele><time>2017-02-21T10:36:37Z</time></trkpt><trkpt lat="42.595743" lon="-2.683383"><ele>1065.8</ele><time>2017-02-21T10:36:47Z</time></trkpt><trkpt lat="42.595742" lon="-2.683522"><ele>1062.9</ele><time>2017-02-21T10:36:57Z</time></trkpt><trkpt lat="42.595757" lon="-2.683655"><ele>1060.8</ele><time>2017-02-21T10:37:06Z</time></trkpt><trkpt lat="42.595763" lon="-2.683788"><ele>1059.5</ele><time>2017-02-21T10:37:16Z</time></trkpt><trkpt lat="42.595812" lon="-2.683892"><ele>1056.2</ele><time>2017-02-21T10:37:25Z</time></trkpt><trkpt lat="42.595833" lon="-2.684013"><ele>1055.1</ele><time>2017-02-21T10:37:33Z</time></trkpt><trkpt lat="42.59581" lon="-2.684143"><ele>1053.3</ele><time>2017-02-21T10:37:45Z</time></trkpt><trkpt lat="42.595802" lon="-2.684268"><ele>1052.5</ele><time>2017-02-21T10:37:54Z</time></trkpt><trkpt lat="42.595803" lon="-2.684402"><ele>1052.5</ele><time>2017-02-21T10:38:04Z</time></trkpt><trkpt lat="42.595783" lon="-2.684535"><ele>1051.2</ele><time>2017-02-21T10:38:12Z</time></trkpt><trkpt lat="42.5958" lon="-2.684658"><ele>1050.4</ele><time>2017-02-21T10:38:21Z</time></trkpt><trkpt lat="42.595792" lon="-2.684787"><ele>1050.7</ele><time>2017-02-21T10:38:30Z</time></trkpt><trkpt lat="42.595825" lon="-2.684907"><ele>1051.1</ele><time>2017-02-21T10:38:38Z</time></trkpt><trkpt lat="42.595857" lon="-2.68503"><ele>1053.2</ele><time>2017-02-21T10:38:48Z</time></trkpt><trkpt lat="42.595882" lon="-2.685157"><ele>1055.6</ele><time>2017-02-21T10:38:57Z</time></trkpt><trkpt lat="42.595885" lon="-2.685292"><ele>1056.9</ele><time>2017-02-21T10:39:06Z</time></trkpt><trkpt lat="42.595852" lon="-2.685417"><ele>1057.5</ele><time>2017-02-21T10:39:16Z</time></trkpt><trkpt lat="42.5958" lon="-2.685303"><ele>1058.8</ele><time>2017-02-21T10:39:25Z</time></trkpt><trkpt lat="42.595752" lon="-2.685182"><ele>1062.6</ele><time>2017-02-21T10:39:34Z</time></trkpt><trkpt lat="42.595693" lon="-2.685088"><ele>1063.7</ele><time>2017-02-21T10:39:39Z</time></trkpt><trkpt lat="42.595618" lon="-2.684997"><ele>1067.1</ele><time>2017-02-21T10:39:47Z</time></trkpt><trkpt lat="42.595558" lon="-2.684905"><ele>1069.6</ele><time>2017-02-21T10:39:56Z</time></trkpt><trkpt lat="42.595497" lon="-2.68481"><ele>1070.1</ele><time>2017-02-21T10:40:04Z</time></trkpt><trkpt lat="42.59543" lon="-2.684712"><ele>1074.0</ele><time>2017-02-21T10:40:12Z</time></trkpt><trkpt lat="42.595353" lon="-2.684635"><ele>1079.3</ele><time>2017-02-21T10:40:21Z</time></trkpt><trkpt lat="42.595285" lon="-2.684553"><ele>1083.0</ele><time>2017-02-21T10:40:31Z</time></trkpt><trkpt lat="42.59521" lon="-2.684478"><ele>1086.5</ele><time>2017-02-21T10:40:38Z</time></trkpt><trkpt lat="42.595105" lon="-2.684472"><ele>1095.8</ele><time>2017-02-21T10:40:57Z</time></trkpt><trkpt lat="42.595117" lon="-2.684593"><ele>1096.2</ele><time>2017-02-21T10:41:06Z</time></trkpt><trkpt lat="42.595138" lon="-2.684718"><ele>1097.1</ele><time>2017-02-21T10:41:12Z</time></trkpt><trkpt lat="42.59514" lon="-2.684845"><ele>1097.8</ele><time>2017-02-21T10:41:21Z</time></trkpt><trkpt lat="42.595165" lon="-2.684972"><ele>1097.8</ele><time>2017-02-21T10:41:29Z</time></trkpt><trkpt lat="42.595188" lon="-2.685098"><ele>1100.6</ele><time>2017-02-21T10:41:39Z</time></trkpt><trkpt lat="42.595095" lon="-2.68507"><ele>1117.3</ele><time>2017-02-21T10:42:38Z</time></trkpt><trkpt lat="42.594993" lon="-2.685017"><ele>1122.2</ele><time>2017-02-21T10:43:14Z</time></trkpt><trkpt lat="42.594967" lon="-2.685142"><ele>1134.4</ele><time>2017-02-21T10:44:07Z</time></trkpt><trkpt lat="42.594912" lon="-2.685275"><ele>1141.8</ele><time>2017-02-21T10:44:47Z</time></trkpt><trkpt lat="42.594853" lon="-2.685458"><ele>1175.6</ele><time>2017-02-21T10:46:15Z</time></trkpt><trkpt lat="42.594882" lon="-2.685577"><ele>1185.2</ele><time>2017-02-21T10:46:44Z</time></trkpt><trkpt lat="42.594858" lon="-2.685695"><ele>1196.9</ele><time>2017-02-21T10:47:47Z</time></trkpt><trkpt lat="42.594947" lon="-2.685748"><ele>1211.8</ele><time>2017-02-21T10:52:47Z</time></trkpt><trkpt lat="42.594973" lon="-2.68587"><ele>1213.2</ele><time>2017-02-21T11:14:46Z</time></trkpt><trkpt lat="42.59505" lon="-2.685937"><ele>1210.5</ele><time>2017-02-21T11:15:14Z</time></trkpt><trkpt lat="42.595117" lon="-2.686022"><ele>1208.4</ele><time>2017-02-21T11:15:28Z</time></trkpt><trkpt lat="42.595183" lon="-2.686115"><ele>1206.0</ele><time>2017-02-21T11:15:40Z</time></trkpt><trkpt lat="42.59522" lon="-2.686228"><ele>1203.7</ele><time>2017-02-21T11:15:49Z</time></trkpt><trkpt lat="42.595333" lon="-2.686377"><ele>1199.3</ele><time>2017-02-21T11:16:16Z</time></trkpt><trkpt lat="42.595415" lon="-2.68644"><ele>1198.1</ele><time>2017-02-21T11:17:00Z</time></trkpt><trkpt lat="42.59551" lon="-2.686473"><ele>1197.7</ele><time>2017-02-21T11:17:21Z</time></trkpt><trkpt lat="42.595495" lon="-2.68635"><ele>1195.3</ele><time>2017-02-21T11:18:11Z</time></trkpt><trkpt lat="42.595595" lon="-2.68639"><ele>1192.4</ele><time>2017-02-21T11:18:42Z</time></trkpt><trkpt lat="42.595708" lon="-2.686433"><ele>1190.5</ele><time>2017-02-21T11:18:56Z</time></trkpt><trkpt lat="42.595622" lon="-2.686477"><ele>1191.0</ele><time>2017-02-21T11:19:11Z</time></trkpt><trkpt lat="42.595537" lon="-2.686532"><ele>1191.4</ele><time>2017-02-21T11:19:37Z</time></trkpt><trkpt lat="42.595473" lon="-2.686648"><ele>1192.8</ele><time>2017-02-21T11:20:25Z</time></trkpt><trkpt lat="42.595595" lon="-2.686738"><ele>1193.9</ele><time>2017-02-21T11:20:59Z</time></trkpt><trkpt lat="42.595685" lon="-2.686882"><ele>1194.6</ele><time>2017-02-21T11:21:44Z</time></trkpt><trkpt lat="42.595727" lon="-2.687038"><ele>1193.9</ele><time>2017-02-21T11:22:09Z</time></trkpt><trkpt lat="42.595772" lon="-2.687145"><ele>1193.1</ele><time>2017-02-21T11:22:21Z</time></trkpt><trkpt lat="42.595833" lon="-2.687242"><ele>1191.7</ele><time>2017-02-21T11:22:33Z</time></trkpt><trkpt lat="42.595897" lon="-2.687333"><ele>1190.0</ele><time>2017-02-21T11:22:44Z</time></trkpt><trkpt lat="42.595983" lon="-2.68745"><ele>1187.1</ele><time>2017-02-21T11:23:04Z</time></trkpt><trkpt lat="42.59608" lon="-2.687468"><ele>1186.1</ele><time>2017-02-21T11:23:26Z</time></trkpt><trkpt lat="42.596172" lon="-2.687498"><ele>1182.2</ele><time>2017-02-21T11:23:54Z</time></trkpt><trkpt lat="42.596245" lon="-2.687393"><ele>1179.5</ele><time>2017-02-21T11:24:29Z</time></trkpt><trkpt lat="42.596192" lon="-2.687268"><ele>1179.0</ele><time>2017-02-21T11:24:54Z</time></trkpt><trkpt lat="42.596225" lon="-2.687143"><ele>1179.8</ele><time>2017-02-21T11:25:21Z</time></trkpt><trkpt lat="42.596317" lon="-2.687183"><ele>1179.7</ele><time>2017-02-21T11:25:38Z</time></trkpt><trkpt lat="42.596223" lon="-2.687127"><ele>1179.0</ele><time>2017-02-21T11:25:55Z</time></trkpt><trkpt lat="42.596127" lon="-2.687087"><ele>1178.5</ele><time>2017-02-21T11:26:11Z</time></trkpt><trkpt lat="42.596038" lon="-2.687027"><ele>1177.8</ele><time>2017-02-21T11:26:25Z</time></trkpt><trkpt lat="42.596002" lon="-2.686912"><ele>1177.0</ele><time>2017-02-21T11:26:47Z</time></trkpt><trkpt lat="42.595922" lon="-2.686837"><ele>1175.0</ele><time>2017-02-21T11:27:02Z</time></trkpt><trkpt lat="42.595817" lon="-2.686687"><ele>1173.9</ele><time>2017-02-21T11:27:33Z</time></trkpt><trkpt lat="42.595908" lon="-2.686812"><ele>1176.4</ele><time>2017-02-21T11:28:36Z</time></trkpt><trkpt lat="42.595988" lon="-2.686902"><ele>1176.6</ele><time>2017-02-21T11:29:01Z</time></trkpt><trkpt lat="42.596132" lon="-2.686865"><ele>1173.6</ele><time>2017-02-21T11:29:36Z</time></trkpt><trkpt lat="42.59622" lon="-2.68695"><ele>1170.6</ele><time>2017-02-21T11:30:36Z</time></trkpt><trkpt lat="42.596308" lon="-2.686995"><ele>1168.9</ele><time>2017-02-21T11:31:24Z</time></trkpt><trkpt lat="42.596385" lon="-2.687068"><ele>1169.1</ele><time>2017-02-21T11:31:40Z</time></trkpt><trkpt lat="42.596273" lon="-2.686927"><ele>1169.7</ele><time>2017-02-21T11:31:50Z</time></trkpt><trkpt lat="42.5962" lon="-2.686815"><ele>1170.1</ele><time>2017-02-21T11:31:55Z</time></trkpt><trkpt lat="42.596253" lon="-2.686913"><ele>1172.2</ele><time>2017-02-21T11:32:25Z</time></trkpt><trkpt lat="42.596168" lon="-2.686853"><ele>1173.2</ele><time>2017-02-21T11:32:54Z</time></trkpt><trkpt lat="42.596238" lon="-2.687067"><ele>1173.8</ele><time>2017-02-21T11:33:57Z</time></trkpt><trkpt lat="42.596277" lon="-2.687183"><ele>1172.4</ele><time>2017-02-21T11:35:19Z</time></trkpt><trkpt lat="42.596352" lon="-2.687258"><ele>1172.2</ele><time>2017-02-21T11:35:29Z</time></trkpt><trkpt lat="42.596432" lon="-2.68734"><ele>1173.1</ele><time>2017-02-21T11:35:46Z</time></trkpt><trkpt lat="42.596372" lon="-2.687145"><ele>1167.7</ele><time>2017-02-21T11:38:35Z</time></trkpt><trkpt lat="42.596462" lon="-2.687165"><ele>1167.2</ele><time>2017-02-21T11:38:54Z</time></trkpt><trkpt lat="42.59641" lon="-2.687005"><ele>1165.5</ele><time>2017-02-21T11:40:36Z</time></trkpt><trkpt lat="42.596305" lon="-2.686937"><ele>1161.5</ele><time>2017-02-21T11:41:22Z</time></trkpt><trkpt lat="42.596168" lon="-2.686998"><ele>1160.6</ele><time>2017-02-21T11:44:42Z</time></trkpt><trkpt lat="42.596133" lon="-2.686885"><ele>1163.3</ele><time>2017-02-21T11:45:19Z</time></trkpt><trkpt lat="42.596165" lon="-2.686763"><ele>1163.5</ele><time>2017-02-21T11:45:41Z</time></trkpt><trkpt lat="42.596123" lon="-2.686645"><ele>1163.3</ele><time>2017-02-21T11:46:36Z</time></trkpt><trkpt lat="42.596292" lon="-2.686577"><ele>1164.1</ele><time>2017-02-21T11:47:05Z</time></trkpt><trkpt lat="42.59627" lon="-2.686763"><ele>1162.8</ele><time>2017-02-21T11:47:53Z</time></trkpt><trkpt lat="42.596243" lon="-2.686903"><ele>1162.7</ele><time>2017-02-21T11:48:16Z</time></trkpt><trkpt lat="42.596248" lon="-2.687138"><ele>1163.1</ele><time>2017-02-21T11:49:00Z</time></trkpt><trkpt lat="42.596288" lon="-2.687253"><ele>1162.9</ele><time>2017-02-21T11:49:18Z</time></trkpt><trkpt lat="42.596363" lon="-2.68733"><ele>1163.4</ele><time>2017-02-21T11:49:30Z</time></trkpt><trkpt lat="42.596438" lon="-2.687493"><ele>1160.5</ele><time>2017-02-21T11:50:10Z</time></trkpt><trkpt lat="42.596523" lon="-2.687592"><ele>1160.1</ele><time>2017-02-21T11:50:39Z</time></trkpt><trkpt lat="42.596538" lon="-2.687717"><ele>1159.7</ele><time>2017-02-21T11:51:05Z</time></trkpt><trkpt lat="42.596688" lon="-2.687747"><ele>1161.3</ele><time>2017-02-21T11:51:32Z</time></trkpt><trkpt lat="42.596735" lon="-2.687882"><ele>1160.2</ele><time>2017-02-21T11:52:05Z</time></trkpt><trkpt lat="42.596847" lon="-2.687957"><ele>1159.3</ele><time>2017-02-21T11:52:28Z</time></trkpt><trkpt lat="42.596985" lon="-2.68807"><ele>1153.1</ele><time>2017-02-21T11:53:14Z</time></trkpt><trkpt lat="42.597032" lon="-2.688177"><ele>1152.8</ele><time>2017-02-21T11:53:47Z</time></trkpt><trkpt lat="42.596985" lon="-2.68829"><ele>1151.4</ele><time>2017-02-21T11:54:10Z</time></trkpt><trkpt lat="42.596898" lon="-2.688408"><ele>1151.1</ele><time>2017-02-21T11:54:49Z</time></trkpt><trkpt lat="42.5968" lon="-2.68858"><ele>1154.5</ele><time>2017-02-21T11:56:08Z</time></trkpt><trkpt lat="42.596737" lon="-2.688667"><ele>1153.8</ele><time>2017-02-21T11:56:41Z</time></trkpt><trkpt lat="42.596643" lon="-2.688702"><ele>1153.5</ele><time>2017-02-21T11:56:47Z</time></trkpt><trkpt lat="42.596535" lon="-2.688747"><ele>1153.2</ele><time>2017-02-21T11:56:52Z</time></trkpt><trkpt lat="42.596915" lon="-2.688148"><ele>1146.9</ele><time>2017-02-21T11:57:21Z</time></trkpt><trkpt lat="42.596343" lon="-2.688173"><ele>1145.6</ele><time>2017-02-21T11:57:23Z</time></trkpt><trkpt lat="42.596127" lon="-2.688235"><ele>1144.9</ele><time>2017-02-21T11:57:24Z</time></trkpt><trkpt lat="42.596002" lon="-2.688282"><ele>1144.4</ele><time>2017-02-21T11:57:25Z</time></trkpt><trkpt lat="42.595872" lon="-2.688385"><ele>1143.3</ele><time>2017-02-21T11:57:27Z</time></trkpt><trkpt lat="42.59574" lon="-2.688397"><ele>1142.8</ele><time>2017-02-21T11:57:28Z</time></trkpt><trkpt lat="42.595638" lon="-2.688418"><ele>1142.3</ele><time>2017-02-21T11:57:29Z</time></trkpt><trkpt lat="42.596783" lon="-2.688853"><ele>1120.1</ele><time>2017-02-21T12:02:30Z</time></trkpt><trkpt lat="42.596905" lon="-2.688683"><ele>1159.4</ele><time>2017-02-21T12:02:31Z</time></trkpt><trkpt lat="42.596747" lon="-2.688597"><ele>1160.2</ele><time>2017-02-21T12:03:21Z</time></trkpt><trkpt lat="42.596825" lon="-2.688677"><ele>1159.9</ele><time>2017-02-21T12:03:44Z</time></trkpt><trkpt lat="42.596895" lon="-2.688795"><ele>1165.4</ele><time>2017-02-21T12:05:37Z</time></trkpt><trkpt lat="42.596973" lon="-2.68886"><ele>1164.2</ele><time>2017-02-21T12:05:54Z</time></trkpt><trkpt lat="42.597033" lon="-2.689033"><ele>1162.1</ele><time>2017-02-21T12:07:26Z</time></trkpt><trkpt lat="42.596995" lon="-2.689147"><ele>1162.7</ele><time>2017-02-21T12:07:46Z</time></trkpt><trkpt lat="42.597072" lon="-2.689225"><ele>1160.2</ele><time>2017-02-21T12:08:00Z</time></trkpt><trkpt lat="42.597125" lon="-2.68934"><ele>1156.5</ele><time>2017-02-21T12:08:10Z</time></trkpt><trkpt lat="42.597172" lon="-2.689458"><ele>1150.7</ele><time>2017-02-21T12:08:16Z</time></trkpt><trkpt lat="42.597193" lon="-2.689583"><ele>1145.4</ele><time>2017-02-21T12:08:24Z</time></trkpt><trkpt lat="42.597222" lon="-2.689707"><ele>1141.2</ele><time>2017-02-21T12:08:33Z</time></trkpt><trkpt lat="42.597232" lon="-2.689835"><ele>1136.6</ele><time>2017-02-21T12:08:41Z</time></trkpt><trkpt lat="42.597287" lon="-2.689945"><ele>1131.3</ele><time>2017-02-21T12:08:51Z</time></trkpt><trkpt lat="42.597328" lon="-2.690053"><ele>1128.1</ele><time>2017-02-21T12:09:01Z</time></trkpt><trkpt lat="42.597372" lon="-2.690165"><ele>1126.3</ele><time>2017-02-21T12:09:08Z</time></trkpt><trkpt lat="42.59742" lon="-2.690278"><ele>1123.7</ele><time>2017-02-21T12:09:14Z</time></trkpt><trkpt lat="42.597445" lon="-2.690408"><ele>1120.7</ele><time>2017-02-21T12:09:22Z</time></trkpt><trkpt lat="42.597493" lon="-2.690527"><ele>1117.8</ele><time>2017-02-21T12:09:29Z</time></trkpt><trkpt lat="42.597558" lon="-2.690633"><ele>1115.6</ele><time>2017-02-21T12:09:36Z</time></trkpt><trkpt lat="42.597628" lon="-2.690723"><ele>1111.6</ele><time>2017-02-21T12:09:45Z</time></trkpt><trkpt lat="42.597698" lon="-2.69085"><ele>1106.7</ele><time>2017-02-21T12:10:00Z</time></trkpt><trkpt lat="42.597765" lon="-2.690945"><ele>1105.3</ele><time>2017-02-21T12:10:09Z</time></trkpt><trkpt lat="42.597833" lon="-2.691027"><ele>1104.9</ele><time>2017-02-21T12:10:21Z</time></trkpt><trkpt lat="42.597907" lon="-2.691108"><ele>1101.0</ele><time>2017-02-21T12:10:33Z</time></trkpt><trkpt lat="42.597998" lon="-2.69109"><ele>1098.1</ele><time>2017-02-21T12:10:47Z</time></trkpt><trkpt lat="42.598093" lon="-2.691047"><ele>1092.2</ele><time>2017-02-21T12:10:59Z</time></trkpt><trkpt lat="42.5982" lon="-2.69103"><ele>1092.2</ele><time>2017-02-21T12:11:04Z</time></trkpt><trkpt lat="42.59829" lon="-2.690997"><ele>1089.0</ele><time>2017-02-21T12:11:11Z</time></trkpt><trkpt lat="42.598385" lon="-2.690985"><ele>1087.7</ele><time>2017-02-21T12:11:19Z</time></trkpt><trkpt lat="42.598502" lon="-2.690945"><ele>1087.3</ele><time>2017-02-21T12:11:32Z</time></trkpt><trkpt lat="42.598593" lon="-2.69091"><ele>1082.4</ele><time>2017-02-21T12:11:42Z</time></trkpt><trkpt lat="42.598687" lon="-2.69096"><ele>1079.9</ele><time>2017-02-21T12:11:51Z</time></trkpt><trkpt lat="42.598782" lon="-2.691012"><ele>1082.7</ele><time>2017-02-21T12:11:56Z</time></trkpt><trkpt lat="42.59884" lon="-2.69113"><ele>1083.1</ele><time>2017-02-21T12:12:03Z</time></trkpt><trkpt lat="42.598857" lon="-2.691252"><ele>1082.2</ele><time>2017-02-21T12:12:11Z</time></trkpt><trkpt lat="42.59887" lon="-2.69138"><ele>1080.9</ele><time>2017-02-21T12:12:21Z</time></trkpt><trkpt lat="42.598877" lon="-2.691512"><ele>1081.0</ele><time>2017-02-21T12:12:31Z</time></trkpt><trkpt lat="42.59886" lon="-2.69165"><ele>1079.8</ele><time>2017-02-21T12:12:39Z</time></trkpt><trkpt lat="42.598878" lon="-2.691785"><ele>1079.2</ele><time>2017-02-21T12:12:46Z</time></trkpt><trkpt lat="42.598852" lon="-2.691968"><ele>1078.8</ele><time>2017-02-21T12:12:57Z</time></trkpt><trkpt lat="42.598892" lon="-2.692107"><ele>1077.9</ele><time>2017-02-21T12:13:04Z</time></trkpt><trkpt lat="42.598887" lon="-2.692245"><ele>1075.9</ele><time>2017-02-21T12:13:13Z</time></trkpt><trkpt lat="42.598867" lon="-2.692368"><ele>1076.0</ele><time>2017-02-21T12:13:22Z</time></trkpt><trkpt lat="42.598873" lon="-2.692513"><ele>1075.0</ele><time>2017-02-21T12:13:32Z</time></trkpt><trkpt lat="42.598912" lon="-2.69263"><ele>1074.4</ele><time>2017-02-21T12:13:38Z</time></trkpt><trkpt lat="42.598892" lon="-2.692777"><ele>1073.6</ele><time>2017-02-21T12:13:45Z</time></trkpt><trkpt lat="42.598885" lon="-2.692898"><ele>1071.4</ele><time>2017-02-21T12:13:51Z</time></trkpt><trkpt lat="42.598912" lon="-2.693025"><ele>1071.8</ele><time>2017-02-21T12:13:58Z</time></trkpt><trkpt lat="42.598898" lon="-2.69316"><ele>1072.3</ele><time>2017-02-21T12:14:05Z</time></trkpt><trkpt lat="42.598877" lon="-2.693295"><ele>1074.4</ele><time>2017-02-21T12:14:11Z</time></trkpt><trkpt lat="42.59884" lon="-2.693417"><ele>1074.8</ele><time>2017-02-21T12:14:18Z</time></trkpt><trkpt lat="42.598835" lon="-2.693542"><ele>1075.9</ele><time>2017-02-21T12:14:25Z</time></trkpt><trkpt lat="42.598807" lon="-2.69366"><ele>1077.7</ele><time>2017-02-21T12:14:31Z</time></trkpt><trkpt lat="42.59879" lon="-2.69378"><ele>1077.7</ele><time>2017-02-21T12:14:37Z</time></trkpt><trkpt lat="42.598758" lon="-2.693897"><ele>1078.1</ele><time>2017-02-21T12:14:44Z</time></trkpt><trkpt lat="42.598733" lon="-2.694018"><ele>1078.6</ele><time>2017-02-21T12:14:51Z</time></trkpt><trkpt lat="42.598735" lon="-2.694153"><ele>1078.9</ele><time>2017-02-21T12:14:58Z</time></trkpt><trkpt lat="42.598757" lon="-2.69428"><ele>1078.7</ele><time>2017-02-21T12:15:05Z</time></trkpt><trkpt lat="42.598753" lon="-2.694407"><ele>1078.8</ele><time>2017-02-21T12:15:12Z</time></trkpt><trkpt lat="42.59874" lon="-2.694532"><ele>1078.8</ele><time>2017-02-21T12:15:21Z</time></trkpt><trkpt lat="42.598738" lon="-2.694678"><ele>1081.6</ele><time>2017-02-21T12:15:31Z</time></trkpt><trkpt lat="42.59873" lon="-2.694812"><ele>1081.6</ele><time>2017-02-21T12:15:40Z</time></trkpt><trkpt lat="42.59876" lon="-2.69494"><ele>1080.7</ele><time>2017-02-21T12:15:46Z</time></trkpt><trkpt lat="42.59875" lon="-2.695068"><ele>1080.4</ele><time>2017-02-21T12:15:52Z</time></trkpt><trkpt lat="42.598773" lon="-2.695193"><ele>1081.1</ele><time>2017-02-21T12:15:59Z</time></trkpt><trkpt lat="42.598778" lon="-2.695318"><ele>1082.8</ele><time>2017-02-21T12:16:07Z</time></trkpt><trkpt lat="42.598802" lon="-2.695448"><ele>1084.3</ele><time>2017-02-21T12:16:15Z</time></trkpt><trkpt lat="42.598823" lon="-2.69557"><ele>1086.3</ele><time>2017-02-21T12:16:23Z</time></trkpt><trkpt lat="42.598792" lon="-2.695698"><ele>1087.0</ele><time>2017-02-21T12:16:30Z</time></trkpt><trkpt lat="42.598772" lon="-2.695825"><ele>1089.0</ele><time>2017-02-21T12:16:39Z</time></trkpt><trkpt lat="42.598765" lon="-2.695948"><ele>1089.3</ele><time>2017-02-21T12:16:47Z</time></trkpt><trkpt lat="42.598775" lon="-2.696075"><ele>1089.7</ele><time>2017-02-21T12:16:54Z</time></trkpt><trkpt lat="42.598787" lon="-2.696213"><ele>1090.3</ele><time>2017-02-21T12:16:59Z</time></trkpt><trkpt lat="42.598802" lon="-2.696342"><ele>1091.3</ele><time>2017-02-21T12:17:05Z</time></trkpt><trkpt lat="42.598797" lon="-2.696472"><ele>1090.6</ele><time>2017-02-21T12:17:15Z</time></trkpt><trkpt lat="42.598838" lon="-2.696598"><ele>1088.7</ele><time>2017-02-21T12:17:26Z</time></trkpt><trkpt lat="42.598865" lon="-2.696728"><ele>1086.9</ele><time>2017-02-21T12:17:35Z</time></trkpt><trkpt lat="42.59885" lon="-2.69685"><ele>1084.7</ele><time>2017-02-21T12:17:42Z</time></trkpt><trkpt lat="42.598847" lon="-2.696982"><ele>1083.4</ele><time>2017-02-21T12:17:50Z</time></trkpt><trkpt lat="42.598847" lon="-2.697105"><ele>1082.4</ele><time>2017-02-21T12:17:57Z</time></trkpt><trkpt lat="42.59884" lon="-2.697235"><ele>1081.3</ele><time>2017-02-21T12:18:06Z</time></trkpt><trkpt lat="42.598868" lon="-2.697367"><ele>1080.8</ele><time>2017-02-21T12:18:15Z</time></trkpt><trkpt lat="42.598857" lon="-2.697488"><ele>1079.8</ele><time>2017-02-21T12:18:20Z</time></trkpt><trkpt lat="42.598847" lon="-2.697628"><ele>1078.9</ele><time>2017-02-21T12:18:27Z</time></trkpt><trkpt lat="42.598827" lon="-2.697762"><ele>1077.2</ele><time>2017-02-21T12:18:34Z</time></trkpt><trkpt lat="42.598802" lon="-2.697892"><ele>1076.7</ele><time>2017-02-21T12:18:42Z</time></trkpt><trkpt lat="42.598822" lon="-2.698025"><ele>1075.9</ele><time>2017-02-21T12:18:53Z</time></trkpt><trkpt lat="42.59881" lon="-2.698165"><ele>1073.3</ele><time>2017-02-21T12:19:00Z</time></trkpt><trkpt lat="42.598807" lon="-2.698298"><ele>1072.7</ele><time>2017-02-21T12:19:07Z</time></trkpt><trkpt lat="42.598805" lon="-2.698445"><ele>1070.8</ele><time>2017-02-21T12:19:13Z</time></trkpt><trkpt lat="42.598795" lon="-2.698588"><ele>1069.9</ele><time>2017-02-21T12:19:20Z</time></trkpt><trkpt lat="42.59881" lon="-2.698713"><ele>1068.4</ele><time>2017-02-21T12:19:26Z</time></trkpt><trkpt lat="42.59881" lon="-2.698713"><ele>1068.4</ele><time>2017-02-21T12:19:27Z</time></trkpt><trkpt lat="42.598838" lon="-2.69885"><ele>1067.2</ele><time>2017-02-21T12:19:34Z</time></trkpt><trkpt lat="42.598845" lon="-2.698983"><ele>1065.3</ele><time>2017-02-21T12:19:40Z</time></trkpt><trkpt lat="42.598887" lon="-2.699093"><ele>1064.9</ele><time>2017-02-21T12:19:48Z</time></trkpt><trkpt lat="42.598935" lon="-2.699197"><ele>1065.2</ele><time>2017-02-21T12:19:56Z</time></trkpt><trkpt lat="42.598987" lon="-2.699312"><ele>1064.3</ele><time>2017-02-21T12:20:02Z</time></trkpt><trkpt lat="42.599052" lon="-2.699405"><ele>1063.4</ele><time>2017-02-21T12:20:06Z</time></trkpt><trkpt lat="42.599127" lon="-2.699503"><ele>1062.2</ele><time>2017-02-21T12:20:12Z</time></trkpt><trkpt lat="42.599185" lon="-2.699607"><ele>1060.5</ele><time>2017-02-21T12:20:19Z</time></trkpt><trkpt lat="42.599257" lon="-2.699705"><ele>1060.0</ele><time>2017-02-21T12:20:27Z</time></trkpt><trkpt lat="42.599338" lon="-2.699792"><ele>1058.8</ele><time>2017-02-21T12:20:34Z</time></trkpt><trkpt lat="42.599395" lon="-2.6999"><ele>1056.0</ele><time>2017-02-21T12:20:42Z</time></trkpt><trkpt lat="42.599452" lon="-2.700003"><ele>1053.8</ele><time>2017-02-21T12:20:50Z</time></trkpt><trkpt lat="42.599527" lon="-2.7001"><ele>1052.3</ele><time>2017-02-21T12:20:56Z</time></trkpt><trkpt lat="42.59957" lon="-2.70021"><ele>1051.3</ele><time>2017-02-21T12:21:02Z</time></trkpt><trkpt lat="42.599597" lon="-2.700337"><ele>1051.0</ele><time>2017-02-21T12:21:11Z</time></trkpt><trkpt lat="42.599642" lon="-2.700457"><ele>1049.8</ele><time>2017-02-21T12:21:18Z</time></trkpt><trkpt lat="42.59966" lon="-2.70059"><ele>1048.4</ele><time>2017-02-21T12:21:25Z</time></trkpt><trkpt lat="42.599703" lon="-2.700708"><ele>1048.3</ele><time>2017-02-21T12:21:32Z</time></trkpt><trkpt lat="42.59974" lon="-2.700833"><ele>1048.0</ele><time>2017-02-21T12:21:39Z</time></trkpt><trkpt lat="42.599753" lon="-2.700963"><ele>1046.9</ele><time>2017-02-21T12:21:46Z</time></trkpt><trkpt lat="42.599777" lon="-2.701085"><ele>1046.0</ele><time>2017-02-21T12:21:53Z</time></trkpt><trkpt lat="42.599818" lon="-2.701205"><ele>1045.3</ele><time>2017-02-21T12:22:01Z</time></trkpt><trkpt lat="42.599857" lon="-2.701337"><ele>1044.5</ele><time>2017-02-21T12:22:08Z</time></trkpt><trkpt lat="42.599885" lon="-2.701467"><ele>1044.5</ele><time>2017-02-21T12:22:14Z</time></trkpt><trkpt lat="42.599927" lon="-2.701587"><ele>1042.5</ele><time>2017-02-21T12:22:21Z</time></trkpt><trkpt lat="42.599988" lon="-2.701697"><ele>1042.3</ele><time>2017-02-21T12:22:27Z</time></trkpt><trkpt lat="42.600032" lon="-2.701823"><ele>1041.8</ele><time>2017-02-21T12:22:33Z</time></trkpt><trkpt lat="42.60007" lon="-2.701938"><ele>1041.8</ele><time>2017-02-21T12:22:39Z</time></trkpt><trkpt lat="42.600147" lon="-2.702032"><ele>1040.9</ele><time>2017-02-21T12:22:46Z</time></trkpt><trkpt lat="42.600225" lon="-2.70212"><ele>1040.3</ele><time>2017-02-21T12:22:53Z</time></trkpt><trkpt lat="42.600258" lon="-2.702238"><ele>1039.5</ele><time>2017-02-21T12:22:59Z</time></trkpt><trkpt lat="42.600295" lon="-2.70237"><ele>1040.2</ele><time>2017-02-21T12:23:05Z</time></trkpt><trkpt lat="42.600323" lon="-2.702498"><ele>1040.6</ele><time>2017-02-21T12:23:13Z</time></trkpt><trkpt lat="42.60035" lon="-2.70264"><ele>1038.9</ele><time>2017-02-21T12:23:25Z</time></trkpt><trkpt lat="42.600312" lon="-2.702755"><ele>1036.9</ele><time>2017-02-21T12:23:33Z</time></trkpt><trkpt lat="42.600275" lon="-2.702887"><ele>1036.5</ele><time>2017-02-21T12:23:40Z</time></trkpt><trkpt lat="42.600225" lon="-2.702997"><ele>1037.0</ele><time>2017-02-21T12:23:47Z</time></trkpt><trkpt lat="42.600145" lon="-2.703075"><ele>1038.1</ele><time>2017-02-21T12:23:59Z</time></trkpt><trkpt lat="42.600047" lon="-2.703093"><ele>1038.4</ele><time>2017-02-21T12:24:49Z</time></trkpt><trkpt lat="42.600065" lon="-2.70296"><ele>1045.8</ele><time>2017-02-21T12:25:10Z</time></trkpt><trkpt lat="42.599997" lon="-2.702863"><ele>1051.6</ele><time>2017-02-21T12:25:24Z</time></trkpt><trkpt lat="42.599922" lon="-2.702792"><ele>1057.2</ele><time>2017-02-21T12:25:44Z</time></trkpt><trkpt lat="42.599817" lon="-2.70278"><ele>1061.1</ele><time>2017-02-21T12:25:58Z</time></trkpt><trkpt lat="42.599712" lon="-2.702772"><ele>1064.2</ele><time>2017-02-21T12:26:04Z</time></trkpt><trkpt lat="42.59961" lon="-2.702742"><ele>1065.3</ele><time>2017-02-21T12:26:08Z</time></trkpt><trkpt lat="42.599513" lon="-2.702685"><ele>1065.8</ele><time>2017-02-21T12:26:14Z</time></trkpt><trkpt lat="42.599423" lon="-2.70277"><ele>1070.0</ele><time>2017-02-21T12:26:36Z</time></trkpt><trkpt lat="42.599387" lon="-2.702953"><ele>1074.4</ele><time>2017-02-21T12:26:52Z</time></trkpt><trkpt lat="42.599363" lon="-2.703155"><ele>1081.1</ele><time>2017-02-21T12:27:03Z</time></trkpt><trkpt lat="42.599383" lon="-2.703275"><ele>1082.6</ele><time>2017-02-21T12:27:12Z</time></trkpt><trkpt lat="42.599393" lon="-2.703397"><ele>1082.1</ele><time>2017-02-21T12:27:19Z</time></trkpt><trkpt lat="42.599422" lon="-2.703543"><ele>1082.6</ele><time>2017-02-21T12:27:34Z</time></trkpt><trkpt lat="42.59947" lon="-2.703648"><ele>1084.9</ele><time>2017-02-21T12:27:40Z</time></trkpt><trkpt lat="42.599525" lon="-2.703763"><ele>1085.8</ele><time>2017-02-21T12:27:47Z</time></trkpt><trkpt lat="42.599558" lon="-2.703878"><ele>1086.1</ele><time>2017-02-21T12:27:56Z</time></trkpt><trkpt lat="42.599487" lon="-2.704012"><ele>1085.6</ele><time>2017-02-21T12:28:14Z</time></trkpt><trkpt lat="42.599422" lon="-2.704128"><ele>1085.9</ele><time>2017-02-21T12:28:31Z</time></trkpt><trkpt lat="42.599408" lon="-2.704307"><ele>1088.1</ele><time>2017-02-21T12:28:43Z</time></trkpt><trkpt lat="42.599322" lon="-2.704422"><ele>1088.9</ele><time>2017-02-21T12:28:55Z</time></trkpt><trkpt lat="42.599433" lon="-2.704575"><ele>1091.9</ele><time>2017-02-21T12:29:13Z</time></trkpt><trkpt lat="42.599425" lon="-2.704725"><ele>1096.7</ele><time>2017-02-21T12:29:36Z</time></trkpt><trkpt lat="42.599477" lon="-2.7049"><ele>1100.4</ele><time>2017-02-21T12:30:07Z</time></trkpt><trkpt lat="42.599512" lon="-2.705015"><ele>1102.3</ele><time>2017-02-21T12:30:22Z</time></trkpt><trkpt lat="42.599565" lon="-2.705127"><ele>1105.1</ele><time>2017-02-21T12:30:41Z</time></trkpt><trkpt lat="42.599565" lon="-2.705127"><ele>1105.1</ele><time>2017-02-21T12:30:42Z</time></trkpt><trkpt lat="42.599598" lon="-2.705252"><ele>1106.9</ele><time>2017-02-21T12:30:53Z</time></trkpt><trkpt lat="42.599578" lon="-2.705372"><ele>1122.8</ele><time>2017-02-21T12:31:59Z</time></trkpt><trkpt lat="42.5996" lon="-2.705493"><ele>1123.8</ele><time>2017-02-21T12:32:09Z</time></trkpt><trkpt lat="42.599625" lon="-2.705615"><ele>1124.4</ele><time>2017-02-21T12:32:18Z</time></trkpt><trkpt lat="42.599633" lon="-2.705737"><ele>1126.5</ele><time>2017-02-21T12:32:30Z</time></trkpt><trkpt lat="42.599665" lon="-2.705857"><ele>1129.9</ele><time>2017-02-21T12:32:46Z</time></trkpt><trkpt lat="42.599682" lon="-2.70599"><ele>1135.2</ele><time>2017-02-21T12:33:08Z</time></trkpt><trkpt lat="42.599673" lon="-2.706128"><ele>1139.8</ele><time>2017-02-21T12:33:30Z</time></trkpt><trkpt lat="42.59968" lon="-2.706262"><ele>1142.5</ele><time>2017-02-21T12:33:55Z</time></trkpt><trkpt lat="42.599688" lon="-2.706392"><ele>1144.7</ele><time>2017-02-21T12:34:10Z</time></trkpt><trkpt lat="42.599645" lon="-2.706577"><ele>1155.0</ele><time>2017-02-21T12:35:05Z</time></trkpt><trkpt lat="42.59968" lon="-2.706692"><ele>1158.1</ele><time>2017-02-21T12:35:21Z</time></trkpt><trkpt lat="42.599725" lon="-2.706842"><ele>1161.1</ele><time>2017-02-21T12:35:48Z</time></trkpt><trkpt lat="42.599645" lon="-2.706925"><ele>1162.7</ele><time>2017-02-21T12:36:11Z</time></trkpt><trkpt lat="42.599703" lon="-2.707018"><ele>1168.1</ele><time>2017-02-21T12:37:39Z</time></trkpt><trkpt lat="42.599762" lon="-2.707122"><ele>1166.9</ele><time>2017-02-21T12:37:56Z</time></trkpt><trkpt lat="42.599797" lon="-2.707242"><ele>1163.3</ele><time>2017-02-21T12:38:06Z</time></trkpt><trkpt lat="42.599868" lon="-2.707323"><ele>1160.0</ele><time>2017-02-21T12:38:15Z</time></trkpt><trkpt lat="42.599935" lon="-2.707407"><ele>1156.3</ele><time>2017-02-21T12:38:24Z</time></trkpt><trkpt lat="42.60001" lon="-2.707528"><ele>1152.1</ele><time>2017-02-21T12:38:40Z</time></trkpt><trkpt lat="42.600085" lon="-2.707607"><ele>1148.7</ele><time>2017-02-21T12:38:49Z</time></trkpt><trkpt lat="42.600163" lon="-2.707683"><ele>1146.4</ele><time>2017-02-21T12:38:57Z</time></trkpt><trkpt lat="42.600227" lon="-2.707792"><ele>1144.0</ele><time>2017-02-21T12:39:06Z</time></trkpt><trkpt lat="42.60028" lon="-2.707892"><ele>1142.2</ele><time>2017-02-21T12:39:15Z</time></trkpt><trkpt lat="42.600342" lon="-2.708"><ele>1138.5</ele><time>2017-02-21T12:39:23Z</time></trkpt><trkpt lat="42.600405" lon="-2.708107"><ele>1135.0</ele><time>2017-02-21T12:39:30Z</time></trkpt><trkpt lat="42.600448" lon="-2.708227"><ele>1131.5</ele><time>2017-02-21T12:39:38Z</time></trkpt><trkpt lat="42.600477" lon="-2.708355"><ele>1129.7</ele><time>2017-02-21T12:39:47Z</time></trkpt><trkpt lat="42.600512" lon="-2.708478"><ele>1127.5</ele><time>2017-02-21T12:39:57Z</time></trkpt><trkpt lat="42.600532" lon="-2.708613"><ele>1126.9</ele><time>2017-02-21T12:40:03Z</time></trkpt><trkpt lat="42.600578" lon="-2.70873"><ele>1125.3</ele><time>2017-02-21T12:40:13Z</time></trkpt><trkpt lat="42.600593" lon="-2.708863"><ele>1124.3</ele><time>2017-02-21T12:40:25Z</time></trkpt><trkpt lat="42.60063" lon="-2.708983"><ele>1122.4</ele><time>2017-02-21T12:40:34Z</time></trkpt><trkpt lat="42.600663" lon="-2.70911"><ele>1121.5</ele><time>2017-02-21T12:40:41Z</time></trkpt><trkpt lat="42.600685" lon="-2.70924"><ele>1120.5</ele><time>2017-02-21T12:40:49Z</time></trkpt><trkpt lat="42.600758" lon="-2.70935"><ele>1119.6</ele><time>2017-02-21T12:40:57Z</time></trkpt><trkpt lat="42.600845" lon="-2.70941"><ele>1120.3</ele><time>2017-02-21T12:41:04Z</time></trkpt><trkpt lat="42.600925" lon="-2.709477"><ele>1121.1</ele><time>2017-02-21T12:41:10Z</time></trkpt><trkpt lat="42.600953" lon="-2.709605"><ele>1122.0</ele><time>2017-02-21T12:41:15Z</time></trkpt><trkpt lat="42.600972" lon="-2.709733"><ele>1121.1</ele><time>2017-02-21T12:41:22Z</time></trkpt><trkpt lat="42.600993" lon="-2.709852"><ele>1122.5</ele><time>2017-02-21T12:41:33Z</time></trkpt><trkpt lat="42.600998" lon="-2.709977"><ele>1124.0</ele><time>2017-02-21T12:41:42Z</time></trkpt><trkpt lat="42.601028" lon="-2.7101"><ele>1124.6</ele><time>2017-02-21T12:41:51Z</time></trkpt><trkpt lat="42.601072" lon="-2.71021"><ele>1125.2</ele><time>2017-02-21T12:41:57Z</time></trkpt><trkpt lat="42.601117" lon="-2.710333"><ele>1125.3</ele><time>2017-02-21T12:42:04Z</time></trkpt><trkpt lat="42.601152" lon="-2.71046"><ele>1126.4</ele><time>2017-02-21T12:42:11Z</time></trkpt><trkpt lat="42.601182" lon="-2.71058"><ele>1128.8</ele><time>2017-02-21T12:42:19Z</time></trkpt><trkpt lat="42.601207" lon="-2.710708"><ele>1131.3</ele><time>2017-02-21T12:42:30Z</time></trkpt><trkpt lat="42.601262" lon="-2.710812"><ele>1131.7</ele><time>2017-02-21T12:42:38Z</time></trkpt><trkpt lat="42.601243" lon="-2.711038"><ele>1132.9</ele><time>2017-02-21T12:43:00Z</time></trkpt><trkpt lat="42.60128" lon="-2.711175"><ele>1131.0</ele><time>2017-02-21T12:43:31Z</time></trkpt><trkpt lat="42.601367" lon="-2.711217"><ele>1130.5</ele><time>2017-02-21T12:43:57Z</time></trkpt><trkpt lat="42.601457" lon="-2.711272"><ele>1129.5</ele><time>2017-02-21T12:44:06Z</time></trkpt><trkpt lat="42.601512" lon="-2.711387"><ele>1127.6</ele><time>2017-02-21T12:44:16Z</time></trkpt><trkpt lat="42.60159" lon="-2.711457"><ele>1125.9</ele><time>2017-02-21T12:44:24Z</time></trkpt><trkpt lat="42.601667" lon="-2.711538"><ele>1121.9</ele><time>2017-02-21T12:44:40Z</time></trkpt><trkpt lat="42.601747" lon="-2.711618"><ele>1118.1</ele><time>2017-02-21T12:44:51Z</time></trkpt><trkpt lat="42.601828" lon="-2.711702"><ele>1116.5</ele><time>2017-02-21T12:44:58Z</time></trkpt><trkpt lat="42.601887" lon="-2.711797"><ele>1113.5</ele><time>2017-02-21T12:45:07Z</time></trkpt><trkpt lat="42.601937" lon="-2.71191"><ele>1109.2</ele><time>2017-02-21T12:45:16Z</time></trkpt><trkpt lat="42.601998" lon="-2.712015"><ele>1107.8</ele><time>2017-02-21T12:45:24Z</time></trkpt><trkpt lat="42.602063" lon="-2.7121"><ele>1107.0</ele><time>2017-02-21T12:45:32Z</time></trkpt><trkpt lat="42.602145" lon="-2.712177"><ele>1107.8</ele><time>2017-02-21T12:45:42Z</time></trkpt><trkpt lat="42.6022" lon="-2.712282"><ele>1108.0</ele><time>2017-02-21T12:45:51Z</time></trkpt><trkpt lat="42.602245" lon="-2.7124"><ele>1107.2</ele><time>2017-02-21T12:46:00Z</time></trkpt><trkpt lat="42.60225" lon="-2.712525"><ele>1106.7</ele><time>2017-02-21T12:46:08Z</time></trkpt><trkpt lat="42.602285" lon="-2.71266"><ele>1105.0</ele><time>2017-02-21T12:46:18Z</time></trkpt><trkpt lat="42.602312" lon="-2.712788"><ele>1102.2</ele><time>2017-02-21T12:46:27Z</time></trkpt><trkpt lat="42.602372" lon="-2.712887"><ele>1099.8</ele><time>2017-02-21T12:46:35Z</time></trkpt><trkpt lat="42.602377" lon="-2.713017"><ele>1100.0</ele><time>2017-02-21T12:46:45Z</time></trkpt><trkpt lat="42.602422" lon="-2.713225"><ele>1097.0</ele><time>2017-02-21T12:47:07Z</time></trkpt><trkpt lat="42.602455" lon="-2.713403"><ele>1093.5</ele><time>2017-02-21T12:47:24Z</time></trkpt><trkpt lat="42.602523" lon="-2.713497"><ele>1093.1</ele><time>2017-02-21T12:47:34Z</time></trkpt><trkpt lat="42.60259" lon="-2.713607"><ele>1090.8</ele><time>2017-02-21T12:47:43Z</time></trkpt><trkpt lat="42.60261" lon="-2.713735"><ele>1086.1</ele><time>2017-02-21T12:47:50Z</time></trkpt><trkpt lat="42.602672" lon="-2.713872"><ele>1080.3</ele><time>2017-02-21T12:48:05Z</time></trkpt><trkpt lat="42.602727" lon="-2.713987"><ele>1077.8</ele><time>2017-02-21T12:48:12Z</time></trkpt><trkpt lat="42.602778" lon="-2.714098"><ele>1074.5</ele><time>2017-02-21T12:48:18Z</time></trkpt><trkpt lat="42.602822" lon="-2.714207"><ele>1071.5</ele><time>2017-02-21T12:48:24Z</time></trkpt><trkpt lat="42.602887" lon="-2.714302"><ele>1068.6</ele><time>2017-02-21T12:48:31Z</time></trkpt><trkpt lat="42.602955" lon="-2.714407"><ele>1065.9</ele><time>2017-02-21T12:48:38Z</time></trkpt><trkpt lat="42.60309" lon="-2.714538"><ele>1062.8</ele><time>2017-02-21T12:49:14Z</time></trkpt><trkpt lat="42.603133" lon="-2.714653"><ele>1065.8</ele><time>2017-02-21T12:49:27Z</time></trkpt><trkpt lat="42.603175" lon="-2.714778"><ele>1065.7</ele><time>2017-02-21T12:49:36Z</time></trkpt><trkpt lat="42.603258" lon="-2.714843"><ele>1067.2</ele><time>2017-02-21T12:49:47Z</time></trkpt><trkpt lat="42.603362" lon="-2.71488"><ele>1066.5</ele><time>2017-02-21T12:49:53Z</time></trkpt><trkpt lat="42.60345" lon="-2.714928"><ele>1064.8</ele><time>2017-02-21T12:49:59Z</time></trkpt><trkpt lat="42.603538" lon="-2.71497"><ele>1063.9</ele><time>2017-02-21T12:50:08Z</time></trkpt><trkpt lat="42.60363" lon="-2.714928"><ele>1064.2</ele><time>2017-02-21T12:50:17Z</time></trkpt><trkpt lat="42.603727" lon="-2.714905"><ele>1065.1</ele><time>2017-02-21T12:50:29Z</time></trkpt><trkpt lat="42.603815" lon="-2.714947"><ele>1065.6</ele><time>2017-02-21T12:50:45Z</time></trkpt><trkpt lat="42.60374" lon="-2.714863"><ele>1065.9</ele><time>2017-02-21T12:50:57Z</time></trkpt><trkpt lat="42.603833" lon="-2.714888"><ele>1068.9</ele><time>2017-02-21T12:51:23Z</time></trkpt><trkpt lat="42.603917" lon="-2.714942"><ele>1069.1</ele><time>2017-02-21T12:51:32Z</time></trkpt><trkpt lat="42.603973" lon="-2.715037"><ele>1068.5</ele><time>2017-02-21T12:51:40Z</time></trkpt><trkpt lat="42.603907" lon="-2.71513"><ele>1071.1</ele><time>2017-02-21T12:52:09Z</time></trkpt><trkpt lat="42.603957" lon="-2.715242"><ele>1068.1</ele><time>2017-02-21T12:52:38Z</time></trkpt><trkpt lat="42.604043" lon="-2.715318"><ele>1068.2</ele><time>2017-02-21T12:52:48Z</time></trkpt><trkpt lat="42.604128" lon="-2.715393"><ele>1068.5</ele><time>2017-02-21T12:52:57Z</time></trkpt><trkpt lat="42.604185" lon="-2.715512"><ele>1069.8</ele><time>2017-02-21T12:53:51Z</time></trkpt><trkpt lat="42.604257" lon="-2.715598"><ele>1071.1</ele><time>2017-02-21T12:54:03Z</time></trkpt><trkpt lat="42.604352" lon="-2.71564"><ele>1072.3</ele><time>2017-02-21T12:54:15Z</time></trkpt><trkpt lat="42.60444" lon="-2.715673"><ele>1073.3</ele><time>2017-02-21T12:54:26Z</time></trkpt><trkpt lat="42.604538" lon="-2.71567"><ele>1074.9</ele><time>2017-02-21T12:54:39Z</time></trkpt><trkpt lat="42.604613" lon="-2.71575"><ele>1076.3</ele><time>2017-02-21T12:54:56Z</time></trkpt><trkpt lat="42.604627" lon="-2.715873"><ele>1077.2</ele><time>2017-02-21T12:55:20Z</time></trkpt><trkpt lat="42.60463" lon="-2.716"><ele>1077.5</ele><time>2017-02-21T12:55:31Z</time></trkpt><trkpt lat="42.604612" lon="-2.716147"><ele>1081.2</ele><time>2017-02-21T12:55:57Z</time></trkpt><trkpt lat="42.604622" lon="-2.716268"><ele>1084.9</ele><time>2017-02-21T12:56:23Z</time></trkpt><trkpt lat="42.604637" lon="-2.716403"><ele>1089.9</ele><time>2017-02-21T12:56:39Z</time></trkpt><trkpt lat="42.604663" lon="-2.716523"><ele>1091.2</ele><time>2017-02-21T12:56:49Z</time></trkpt><trkpt lat="42.604688" lon="-2.716643"><ele>1094.1</ele><time>2017-02-21T12:57:03Z</time></trkpt><trkpt lat="42.604738" lon="-2.716757"><ele>1098.4</ele><time>2017-02-21T12:57:20Z</time></trkpt><trkpt lat="42.604733" lon="-2.716885"><ele>1100.1</ele><time>2017-02-21T12:57:31Z</time></trkpt><trkpt lat="42.604762" lon="-2.717005"><ele>1100.5</ele><time>2017-02-21T12:57:41Z</time></trkpt><trkpt lat="42.604768" lon="-2.717127"><ele>1100.5</ele><time>2017-02-21T12:57:53Z</time></trkpt><trkpt lat="42.604783" lon="-2.71725"><ele>1103.4</ele><time>2017-02-21T12:58:10Z</time></trkpt><trkpt lat="42.60487" lon="-2.717313"><ele>1103.0</ele><time>2017-02-21T12:58:20Z</time></trkpt><trkpt lat="42.604958" lon="-2.717353"><ele>1103.5</ele><time>2017-02-21T12:58:30Z</time></trkpt><trkpt lat="42.605047" lon="-2.717425"><ele>1103.3</ele><time>2017-02-21T12:58:37Z</time></trkpt><trkpt lat="42.605123" lon="-2.7175"><ele>1106.4</ele><time>2017-02-21T12:58:48Z</time></trkpt><trkpt lat="42.605175" lon="-2.717605"><ele>1110.3</ele><time>2017-02-21T12:59:02Z</time></trkpt><trkpt lat="42.605233" lon="-2.717698"><ele>1114.6</ele><time>2017-02-21T12:59:17Z</time></trkpt><trkpt lat="42.605305" lon="-2.717777"><ele>1117.5</ele><time>2017-02-21T12:59:27Z</time></trkpt><trkpt lat="42.605375" lon="-2.71786"><ele>1122.0</ele><time>2017-02-21T12:59:39Z</time></trkpt><trkpt lat="42.605455" lon="-2.717942"><ele>1126.0</ele><time>2017-02-21T12:59:54Z</time></trkpt><trkpt lat="42.605515" lon="-2.718033"><ele>1131.0</ele><time>2017-02-21T13:00:08Z</time></trkpt><trkpt lat="42.605592" lon="-2.718102"><ele>1133.0</ele><time>2017-02-21T13:00:17Z</time></trkpt><trkpt lat="42.605637" lon="-2.71821"><ele>1135.4</ele><time>2017-02-21T13:00:30Z</time></trkpt><trkpt lat="42.605707" lon="-2.71829"><ele>1137.6</ele><time>2017-02-21T13:00:43Z</time></trkpt><trkpt lat="42.605775" lon="-2.718378"><ele>1139.8</ele><time>2017-02-21T13:00:58Z</time></trkpt><trkpt lat="42.605848" lon="-2.71845"><ele>1140.6</ele><time>2017-02-21T13:01:11Z</time></trkpt><trkpt lat="42.605888" lon="-2.718577"><ele>1143.8</ele><time>2017-02-21T13:01:47Z</time></trkpt><trkpt lat="42.60598" lon="-2.718603"><ele>1155.7</ele><time>2017-02-21T13:08:40Z</time></trkpt><trkpt lat="42.606075" lon="-2.718635"><ele>1154.3</ele><time>2017-02-21T13:09:18Z</time></trkpt><trkpt lat="42.60615" lon="-2.718705"><ele>1152.3</ele><time>2017-02-21T13:09:49Z</time></trkpt><trkpt lat="42.60625" lon="-2.71873"><ele>1150.9</ele><time>2017-02-21T13:10:11Z</time></trkpt><trkpt lat="42.606338" lon="-2.718763"><ele>1148.8</ele><time>2017-02-21T13:10:23Z</time></trkpt><trkpt lat="42.60642" lon="-2.71883"><ele>1144.7</ele><time>2017-02-21T13:10:34Z</time></trkpt><trkpt lat="42.606495" lon="-2.71891"><ele>1142.6</ele><time>2017-02-21T13:10:40Z</time></trkpt><trkpt lat="42.606547" lon="-2.719032"><ele>1137.9</ele><time>2017-02-21T13:10:47Z</time></trkpt><trkpt lat="42.606627" lon="-2.719105"><ele>1133.5</ele><time>2017-02-21T13:10:53Z</time></trkpt><trkpt lat="42.606665" lon="-2.719232"><ele>1125.4</ele><time>2017-02-21T13:11:02Z</time></trkpt><trkpt lat="42.606685" lon="-2.719363"><ele>1118.9</ele><time>2017-02-21T13:11:09Z</time></trkpt><trkpt lat="42.606697" lon="-2.719492"><ele>1113.5</ele><time>2017-02-21T13:11:17Z</time></trkpt><trkpt lat="42.606698" lon="-2.71962"><ele>1107.5</ele><time>2017-02-21T13:11:29Z</time></trkpt><trkpt lat="42.606767" lon="-2.719727"><ele>1103.9</ele><time>2017-02-21T13:11:39Z</time></trkpt><trkpt lat="42.606822" lon="-2.719825"><ele>1100.7</ele><time>2017-02-21T13:11:45Z</time></trkpt><trkpt lat="42.606852" lon="-2.719943"><ele>1094.2</ele><time>2017-02-21T13:11:55Z</time></trkpt><trkpt lat="42.606903" lon="-2.720057"><ele>1089.2</ele><time>2017-02-21T13:12:04Z</time></trkpt><trkpt lat="42.606968" lon="-2.720153"><ele>1082.4</ele><time>2017-02-21T13:12:22Z</time></trkpt><trkpt lat="42.607037" lon="-2.72024"><ele>1077.7</ele><time>2017-02-21T13:12:35Z</time></trkpt><trkpt lat="42.607067" lon="-2.720365"><ele>1074.4</ele><time>2017-02-21T13:12:48Z</time></trkpt><trkpt lat="42.607088" lon="-2.720488"><ele>1071.2</ele><time>2017-02-21T13:12:59Z</time></trkpt><trkpt lat="42.607147" lon="-2.720588"><ele>1071.5</ele><time>2017-02-21T13:13:09Z</time></trkpt><trkpt lat="42.607195" lon="-2.720702"><ele>1072.2</ele><time>2017-02-21T13:13:20Z</time></trkpt><trkpt lat="42.607257" lon="-2.720812"><ele>1072.0</ele><time>2017-02-21T13:13:28Z</time></trkpt><trkpt lat="42.607287" lon="-2.72093"><ele>1068.9</ele><time>2017-02-21T13:13:39Z</time></trkpt><trkpt lat="42.607355" lon="-2.721028"><ele>1067.0</ele><time>2017-02-21T13:13:51Z</time></trkpt><trkpt lat="42.60743" lon="-2.721107"><ele>1068.3</ele><time>2017-02-21T13:14:01Z</time></trkpt><trkpt lat="42.607473" lon="-2.721218"><ele>1071.1</ele><time>2017-02-21T13:14:23Z</time></trkpt><trkpt lat="42.60754" lon="-2.72131"><ele>1072.2</ele><time>2017-02-21T13:14:38Z</time></trkpt><trkpt lat="42.60762" lon="-2.72139"><ele>1072.7</ele><time>2017-02-21T13:15:15Z</time></trkpt><trkpt lat="42.607687" lon="-2.721488"><ele>1073.0</ele><time>2017-02-21T13:15:25Z</time></trkpt><trkpt lat="42.60774" lon="-2.721587"><ele>1071.8</ele><time>2017-02-21T13:15:38Z</time></trkpt><trkpt lat="42.607812" lon="-2.721733"><ele>1069.8</ele><time>2017-02-21T13:16:03Z</time></trkpt><trkpt lat="42.607818" lon="-2.721862"><ele>1067.9</ele><time>2017-02-21T13:17:10Z</time></trkpt><trkpt lat="42.60792" lon="-2.721898"><ele>1065.4</ele><time>2017-02-21T13:17:50Z</time></trkpt><trkpt lat="42.608017" lon="-2.721912"><ele>1064.0</ele><time>2017-02-21T13:18:02Z</time></trkpt><trkpt lat="42.608093" lon="-2.721987"><ele>1063.6</ele><time>2017-02-21T13:18:28Z</time></trkpt><trkpt lat="42.608187" lon="-2.722027"><ele>1059.1</ele><time>2017-02-21T13:19:18Z</time></trkpt><trkpt lat="42.608258" lon="-2.722102"><ele>1052.4</ele><time>2017-02-21T13:20:01Z</time></trkpt><trkpt lat="42.608342" lon="-2.722165"><ele>1046.9</ele><time>2017-02-21T13:20:46Z</time></trkpt><trkpt lat="42.608397" lon="-2.722265"><ele>1043.0</ele><time>2017-02-21T13:21:04Z</time></trkpt><trkpt lat="42.608447" lon="-2.722367"><ele>1040.8</ele><time>2017-02-21T13:21:21Z</time></trkpt><trkpt lat="42.608417" lon="-2.72225"><ele>1036.5</ele><time>2017-02-21T13:22:08Z</time></trkpt><trkpt lat="42.60852" lon="-2.722208"><ele>1033.1</ele><time>2017-02-21T13:22:54Z</time></trkpt><trkpt lat="42.608625" lon="-2.722085"><ele>1023.6</ele><time>2017-02-21T13:23:27Z</time></trkpt><trkpt lat="42.60864" lon="-2.722087"><ele>1023.6</ele><time>2017-02-21T13:23:28Z</time></trkpt><trkpt lat="42.608765" lon="-2.721987"><ele>1021.5</ele><time>2017-02-21T13:23:58Z</time></trkpt><trkpt lat="42.60879" lon="-2.721867"><ele>1016.9</ele><time>2017-02-21T13:24:11Z</time></trkpt><trkpt lat="42.608837" lon="-2.72176"><ele>1013.3</ele><time>2017-02-21T13:24:27Z</time></trkpt><trkpt lat="42.608872" lon="-2.72164"><ele>1009.4</ele><time>2017-02-21T13:24:40Z</time></trkpt><trkpt lat="42.608942" lon="-2.721553"><ele>1006.2</ele><time>2017-02-21T13:24:49Z</time></trkpt><trkpt lat="42.609008" lon="-2.721453"><ele>1001.2</ele><time>2017-02-21T13:25:02Z</time></trkpt><trkpt lat="42.609073" lon="-2.721357"><ele>998.1</ele><time>2017-02-21T13:25:16Z</time></trkpt><trkpt lat="42.609162" lon="-2.72128"><ele>996.9</ele><time>2017-02-21T13:25:29Z</time></trkpt><trkpt lat="42.609222" lon="-2.721185"><ele>993.1</ele><time>2017-02-21T13:25:38Z</time></trkpt><trkpt lat="42.609292" lon="-2.7211"><ele>990.0</ele><time>2017-02-21T13:25:46Z</time></trkpt><trkpt lat="42.60937" lon="-2.721035"><ele>988.1</ele><time>2017-02-21T13:25:54Z</time></trkpt><trkpt lat="42.609463" lon="-2.720975"><ele>986.6</ele><time>2017-02-21T13:26:01Z</time></trkpt><trkpt lat="42.609545" lon="-2.720908"><ele>983.7</ele><time>2017-02-21T13:26:10Z</time></trkpt><trkpt lat="42.609602" lon="-2.7208"><ele>979.5</ele><time>2017-02-21T13:26:18Z</time></trkpt><trkpt lat="42.609682" lon="-2.720727"><ele>974.7</ele><time>2017-02-21T13:26:27Z</time></trkpt><trkpt lat="42.609792" lon="-2.720622"><ele>970.6</ele><time>2017-02-21T13:26:46Z</time></trkpt><trkpt lat="42.609893" lon="-2.720585"><ele>968.9</ele><time>2017-02-21T13:27:05Z</time></trkpt><trkpt lat="42.609963" lon="-2.720508"><ele>967.0</ele><time>2017-02-21T13:27:16Z</time></trkpt><trkpt lat="42.610065" lon="-2.720457"><ele>964.3</ele><time>2017-02-21T13:27:23Z</time></trkpt><trkpt lat="42.610158" lon="-2.720372"><ele>961.4</ele><time>2017-02-21T13:27:28Z</time></trkpt><trkpt lat="42.610228" lon="-2.720288"><ele>957.2</ele><time>2017-02-21T13:27:35Z</time></trkpt><trkpt lat="42.610293" lon="-2.720185"><ele>955.0</ele><time>2017-02-21T13:27:42Z</time></trkpt><trkpt lat="42.610295" lon="-2.720057"><ele>951.2</ele><time>2017-02-21T13:27:50Z</time></trkpt><trkpt lat="42.610322" lon="-2.719927"><ele>948.8</ele><time>2017-02-21T13:27:57Z</time></trkpt><trkpt lat="42.610357" lon="-2.719813"><ele>945.2</ele><time>2017-02-21T13:28:06Z</time></trkpt><trkpt lat="42.610445" lon="-2.719773"><ele>941.6</ele><time>2017-02-21T13:28:16Z</time></trkpt><trkpt lat="42.610532" lon="-2.71974"><ele>938.0</ele><time>2017-02-21T13:28:25Z</time></trkpt><trkpt lat="42.610532" lon="-2.71974"><ele>938.0</ele><time>2017-02-21T13:28:26Z</time></trkpt><trkpt lat="42.610632" lon="-2.719733"><ele>935.0</ele><time>2017-02-21T13:28:39Z</time></trkpt><trkpt lat="42.610718" lon="-2.719662"><ele>932.2</ele><time>2017-02-21T13:28:49Z</time></trkpt><trkpt lat="42.610797" lon="-2.71958"><ele>928.8</ele><time>2017-02-21T13:28:57Z</time></trkpt><trkpt lat="42.610848" lon="-2.719468"><ele>925.2</ele><time>2017-02-21T13:29:06Z</time></trkpt><trkpt lat="42.610893" lon="-2.719357"><ele>923.5</ele><time>2017-02-21T13:29:12Z</time></trkpt><trkpt lat="42.610962" lon="-2.719265"><ele>920.6</ele><time>2017-02-21T13:29:20Z</time></trkpt><trkpt lat="42.611043" lon="-2.719183"><ele>917.4</ele><time>2017-02-21T13:29:28Z</time></trkpt><trkpt lat="42.611105" lon="-2.719085"><ele>914.2</ele><time>2017-02-21T13:29:35Z</time></trkpt><trkpt lat="42.611195" lon="-2.719093"><ele>912.9</ele><time>2017-02-21T13:29:45Z</time></trkpt><trkpt lat="42.611267" lon="-2.719198"><ele>910.1</ele><time>2017-02-21T13:29:57Z</time></trkpt><trkpt lat="42.61132" lon="-2.719298"><ele>907.3</ele><time>2017-02-21T13:30:06Z</time></trkpt><trkpt lat="42.61139" lon="-2.71939"><ele>904.6</ele><time>2017-02-21T13:30:14Z</time></trkpt><trkpt lat="42.611483" lon="-2.71934"><ele>902.4</ele><time>2017-02-21T13:30:33Z</time></trkpt><trkpt lat="42.611513" lon="-2.71921"><ele>900.6</ele><time>2017-02-21T13:30:41Z</time></trkpt><trkpt lat="42.611532" lon="-2.719075"><ele>898.6</ele><time>2017-02-21T13:30:48Z</time></trkpt><trkpt lat="42.611535" lon="-2.71895"><ele>896.7</ele><time>2017-02-21T13:30:54Z</time></trkpt><trkpt lat="42.611538" lon="-2.718822"><ele>892.1</ele><time>2017-02-21T13:31:03Z</time></trkpt><trkpt lat="42.611562" lon="-2.718693"><ele>889.4</ele><time>2017-02-21T13:31:10Z</time></trkpt><trkpt lat="42.61156" lon="-2.718543"><ele>888.1</ele><time>2017-02-21T13:31:18Z</time></trkpt><trkpt lat="42.611548" lon="-2.718422"><ele>887.1</ele><time>2017-02-21T13:31:23Z</time></trkpt><trkpt lat="42.611612" lon="-2.718303"><ele>885.6</ele><time>2017-02-21T13:31:28Z</time></trkpt><trkpt lat="42.611637" lon="-2.718182"><ele>883.8</ele><time>2017-02-21T13:31:33Z</time></trkpt><trkpt lat="42.611657" lon="-2.718053"><ele>880.3</ele><time>2017-02-21T13:31:41Z</time></trkpt><trkpt lat="42.611683" lon="-2.717927"><ele>875.6</ele><time>2017-02-21T13:31:51Z</time></trkpt><trkpt lat="42.611648" lon="-2.717787"><ele>872.2</ele><time>2017-02-21T13:31:57Z</time></trkpt><trkpt lat="42.611638" lon="-2.717655"><ele>869.7</ele><time>2017-02-21T13:32:03Z</time></trkpt><trkpt lat="42.611658" lon="-2.71752"><ele>868.9</ele><time>2017-02-21T13:32:11Z</time></trkpt><trkpt lat="42.611717" lon="-2.717425"><ele>867.8</ele><time>2017-02-21T13:32:19Z</time></trkpt><trkpt lat="42.61176" lon="-2.717305"><ele>866.4</ele><time>2017-02-21T13:32:27Z</time></trkpt><trkpt lat="42.611732" lon="-2.717185"><ele>864.1</ele><time>2017-02-21T13:32:38Z</time></trkpt><trkpt lat="42.611685" lon="-2.717058"><ele>862.7</ele><time>2017-02-21T13:32:46Z</time></trkpt><trkpt lat="42.611643" lon="-2.716948"><ele>862.4</ele><time>2017-02-21T13:32:52Z</time></trkpt><trkpt lat="42.611617" lon="-2.716828"><ele>862.8</ele><time>2017-02-21T13:33:00Z</time></trkpt><trkpt lat="42.611577" lon="-2.716708"><ele>862.6</ele><time>2017-02-21T13:33:08Z</time></trkpt><trkpt lat="42.611543" lon="-2.716595"><ele>862.3</ele><time>2017-02-21T13:33:15Z</time></trkpt><trkpt lat="42.61151" lon="-2.716477"><ele>862.6</ele><time>2017-02-21T13:33:22Z</time></trkpt><trkpt lat="42.611463" lon="-2.716357"><ele>863.8</ele><time>2017-02-21T13:33:29Z</time></trkpt><trkpt lat="42.611467" lon="-2.716197"><ele>864.2</ele><time>2017-02-21T13:33:35Z</time></trkpt><trkpt lat="42.611485" lon="-2.71605"><ele>862.9</ele><time>2017-02-21T13:33:42Z</time></trkpt><trkpt lat="42.611508" lon="-2.715922"><ele>860.9</ele><time>2017-02-21T13:33:50Z</time></trkpt><trkpt lat="42.611525" lon="-2.71579"><ele>857.6</ele><time>2017-02-21T13:33:57Z</time></trkpt><trkpt lat="42.611572" lon="-2.715683"><ele>855.4</ele><time>2017-02-21T13:34:03Z</time></trkpt><trkpt lat="42.611632" lon="-2.715583"><ele>853.2</ele><time>2017-02-21T13:34:09Z</time></trkpt><trkpt lat="42.611703" lon="-2.715507"><ele>852.8</ele><time>2017-02-21T13:34:15Z</time></trkpt><trkpt lat="42.611772" lon="-2.7154"><ele>851.7</ele><time>2017-02-21T13:34:21Z</time></trkpt><trkpt lat="42.61183" lon="-2.715288"><ele>850.5</ele><time>2017-02-21T13:34:28Z</time></trkpt><trkpt lat="42.61191" lon="-2.71523"><ele>850.4</ele><time>2017-02-21T13:34:34Z</time></trkpt><trkpt lat="42.61199" lon="-2.715163"><ele>851.4</ele><time>2017-02-21T13:34:40Z</time></trkpt><trkpt lat="42.612042" lon="-2.715062"><ele>851.2</ele><time>2017-02-21T13:34:46Z</time></trkpt><trkpt lat="42.612103" lon="-2.714965"><ele>851.5</ele><time>2017-02-21T13:34:52Z</time></trkpt><trkpt lat="42.612195" lon="-2.714908"><ele>851.6</ele><time>2017-02-21T13:34:59Z</time></trkpt><trkpt lat="42.612283" lon="-2.714865"><ele>853.2</ele><time>2017-02-21T13:35:05Z</time></trkpt><trkpt lat="42.612387" lon="-2.714847"><ele>853.5</ele><time>2017-02-21T13:35:11Z</time></trkpt><trkpt lat="42.612485" lon="-2.714843"><ele>854.0</ele><time>2017-02-21T13:35:17Z</time></trkpt><trkpt lat="42.612582" lon="-2.714872"><ele>856.1</ele><time>2017-02-21T13:35:24Z</time></trkpt><trkpt lat="42.61269" lon="-2.714893"><ele>857.3</ele><time>2017-02-21T13:35:31Z</time></trkpt><trkpt lat="42.612793" lon="-2.714902"><ele>858.4</ele><time>2017-02-21T13:35:37Z</time></trkpt><trkpt lat="42.612888" lon="-2.714902"><ele>860.3</ele><time>2017-02-21T13:35:43Z</time></trkpt><trkpt lat="42.612978" lon="-2.71489"><ele>862.6</ele><time>2017-02-21T13:35:49Z</time></trkpt><trkpt lat="42.613072" lon="-2.714868"><ele>863.6</ele><time>2017-02-21T13:35:56Z</time></trkpt><trkpt lat="42.613168" lon="-2.714848"><ele>863.8</ele><time>2017-02-21T13:36:02Z</time></trkpt><trkpt lat="42.61327" lon="-2.714832"><ele>864.4</ele><time>2017-02-21T13:36:08Z</time></trkpt><trkpt lat="42.613367" lon="-2.714807"><ele>866.4</ele><time>2017-02-21T13:36:13Z</time></trkpt><trkpt lat="42.613447" lon="-2.71474"><ele>868.6</ele><time>2017-02-21T13:36:20Z</time></trkpt><trkpt lat="42.613508" lon="-2.71463"><ele>868.6</ele><time>2017-02-21T13:36:27Z</time></trkpt><trkpt lat="42.61355" lon="-2.71452"><ele>867.6</ele><time>2017-02-21T13:36:32Z</time></trkpt><trkpt lat="42.613602" lon="-2.714417"><ele>866.3</ele><time>2017-02-21T13:36:39Z</time></trkpt><trkpt lat="42.613657" lon="-2.714312"><ele>865.7</ele><time>2017-02-21T13:36:46Z</time></trkpt><trkpt lat="42.613728" lon="-2.714215"><ele>863.5</ele><time>2017-02-21T13:36:52Z</time></trkpt><trkpt lat="42.613787" lon="-2.71411"><ele>861.2</ele><time>2017-02-21T13:36:59Z</time></trkpt><trkpt lat="42.613858" lon="-2.71402"><ele>859.8</ele><time>2017-02-21T13:37:07Z</time></trkpt><trkpt lat="42.613955" lon="-2.713983"><ele>857.7</ele><time>2017-02-21T13:37:14Z</time></trkpt><trkpt lat="42.614048" lon="-2.71394"><ele>855.0</ele><time>2017-02-21T13:37:20Z</time></trkpt><trkpt lat="42.614132" lon="-2.713858"><ele>852.6</ele><time>2017-02-21T13:37:26Z</time></trkpt><trkpt lat="42.614217" lon="-2.713815"><ele>851.1</ele><time>2017-02-21T13:37:31Z</time></trkpt><trkpt lat="42.614305" lon="-2.713752"><ele>849.0</ele><time>2017-02-21T13:37:37Z</time></trkpt><trkpt lat="42.614388" lon="-2.713675"><ele>846.5</ele><time>2017-02-21T13:37:44Z</time></trkpt><trkpt lat="42.61446" lon="-2.713583"><ele>841.8</ele><time>2017-02-21T13:37:52Z</time></trkpt><trkpt lat="42.614518" lon="-2.713475"><ele>839.5</ele><time>2017-02-21T13:37:58Z</time></trkpt><trkpt lat="42.614565" lon="-2.71337"><ele>836.3</ele><time>2017-02-21T13:38:05Z</time></trkpt><trkpt lat="42.614627" lon="-2.713263"><ele>832.4</ele><time>2017-02-21T13:38:12Z</time></trkpt><trkpt lat="42.614695" lon="-2.713182"><ele>829.8</ele><time>2017-02-21T13:38:17Z</time></trkpt><trkpt lat="42.614787" lon="-2.71311"><ele>826.6</ele><time>2017-02-21T13:38:25Z</time></trkpt><trkpt lat="42.614872" lon="-2.713043"><ele>823.9</ele><time>2017-02-21T13:38:32Z</time></trkpt><trkpt lat="42.614962" lon="-2.71299"><ele>821.4</ele><time>2017-02-21T13:38:38Z</time></trkpt><trkpt lat="42.615038" lon="-2.712912"><ele>820.9</ele><time>2017-02-21T13:38:44Z</time></trkpt><trkpt lat="42.615113" lon="-2.712823"><ele>818.9</ele><time>2017-02-21T13:38:51Z</time></trkpt><trkpt lat="42.615155" lon="-2.7127"><ele>819.1</ele><time>2017-02-21T13:38:58Z</time></trkpt><trkpt lat="42.615237" lon="-2.712632"><ele>818.8</ele><time>2017-02-21T13:39:03Z</time></trkpt><trkpt lat="42.615303" lon="-2.712518"><ele>817.9</ele><time>2017-02-21T13:39:09Z</time></trkpt><trkpt lat="42.615385" lon="-2.712432"><ele>816.6</ele><time>2017-02-21T13:39:14Z</time></trkpt><trkpt lat="42.615445" lon="-2.712325"><ele>814.3</ele><time>2017-02-21T13:39:21Z</time></trkpt><trkpt lat="42.615512" lon="-2.712232"><ele>813.1</ele><time>2017-02-21T13:39:27Z</time></trkpt><trkpt lat="42.615555" lon="-2.712117"><ele>811.8</ele><time>2017-02-21T13:39:33Z</time></trkpt><trkpt lat="42.61561" lon="-2.712003"><ele>808.9</ele><time>2017-02-21T13:39:39Z</time></trkpt><trkpt lat="42.615673" lon="-2.711913"><ele>807.4</ele><time>2017-02-21T13:39:44Z</time></trkpt><trkpt lat="42.615747" lon="-2.711815"><ele>805.6</ele><time>2017-02-21T13:39:51Z</time></trkpt><trkpt lat="42.615813" lon="-2.71173"><ele>802.1</ele><time>2017-02-21T13:39:57Z</time></trkpt><trkpt lat="42.61587" lon="-2.71162"><ele>799.6</ele><time>2017-02-21T13:40:04Z</time></trkpt><trkpt lat="42.615917" lon="-2.71151"><ele>799.0</ele><time>2017-02-21T13:40:10Z</time></trkpt><trkpt lat="42.61597" lon="-2.711405"><ele>798.1</ele><time>2017-02-21T13:40:16Z</time></trkpt><trkpt lat="42.616012" lon="-2.711272"><ele>797.9</ele><time>2017-02-21T13:40:23Z</time></trkpt><trkpt lat="42.616058" lon="-2.711163"><ele>797.8</ele><time>2017-02-21T13:40:28Z</time></trkpt><trkpt lat="42.616113" lon="-2.711058"><ele>798.0</ele><time>2017-02-21T13:40:33Z</time></trkpt><trkpt lat="42.616175" lon="-2.710967"><ele>798.5</ele><time>2017-02-21T13:40:39Z</time></trkpt><trkpt lat="42.616253" lon="-2.710882"><ele>797.6</ele><time>2017-02-21T13:40:46Z</time></trkpt><trkpt lat="42.616337" lon="-2.710832"><ele>795.6</ele><time>2017-02-21T13:40:51Z</time></trkpt><trkpt lat="42.61641" lon="-2.710752"><ele>792.5</ele><time>2017-02-21T13:40:58Z</time></trkpt><trkpt lat="42.616497" lon="-2.71068"><ele>788.6</ele><time>2017-02-21T13:41:05Z</time></trkpt><trkpt lat="42.616593" lon="-2.710645"><ele>786.0</ele><time>2017-02-21T13:41:10Z</time></trkpt><trkpt lat="42.616677" lon="-2.710578"><ele>783.6</ele><time>2017-02-21T13:41:17Z</time></trkpt><trkpt lat="42.61676" lon="-2.710502"><ele>783.1</ele><time>2017-02-21T13:41:23Z</time></trkpt><trkpt lat="42.616843" lon="-2.710432"><ele>781.8</ele><time>2017-02-21T13:41:28Z</time></trkpt><trkpt lat="42.61693" lon="-2.710353"><ele>781.1</ele><time>2017-02-21T13:41:34Z</time></trkpt><trkpt lat="42.617007" lon="-2.710265"><ele>781.2</ele><time>2017-02-21T13:41:40Z</time></trkpt><trkpt lat="42.61709" lon="-2.710208"><ele>780.6</ele><time>2017-02-21T13:41:46Z</time></trkpt><trkpt lat="42.617197" lon="-2.710163"><ele>780.3</ele><time>2017-02-21T13:41:51Z</time></trkpt><trkpt lat="42.617288" lon="-2.710105"><ele>780.8</ele><time>2017-02-21T13:41:57Z</time></trkpt><trkpt lat="42.61739" lon="-2.710067"><ele>782.5</ele><time>2017-02-21T13:42:03Z</time></trkpt><trkpt lat="42.617492" lon="-2.710038"><ele>783.0</ele><time>2017-02-21T13:42:09Z</time></trkpt><trkpt lat="42.61758" lon="-2.709993"><ele>784.0</ele><time>2017-02-21T13:42:15Z</time></trkpt><trkpt lat="42.61767" lon="-2.709955"><ele>785.6</ele><time>2017-02-21T13:42:24Z</time></trkpt><trkpt lat="42.61776" lon="-2.709892"><ele>786.3</ele><time>2017-02-21T13:42:30Z</time></trkpt><trkpt lat="42.61784" lon="-2.709813"><ele>786.0</ele><time>2017-02-21T13:42:36Z</time></trkpt><trkpt lat="42.617923" lon="-2.709728"><ele>785.9</ele><time>2017-02-21T13:42:42Z</time></trkpt><trkpt lat="42.618" lon="-2.709642"><ele>786.2</ele><time>2017-02-21T13:42:48Z</time></trkpt><trkpt lat="42.618093" lon="-2.709582"><ele>786.0</ele><time>2017-02-21T13:42:53Z</time></trkpt><trkpt lat="42.61818" lon="-2.709493"><ele>787.3</ele><time>2017-02-21T13:42:59Z</time></trkpt><trkpt lat="42.618275" lon="-2.709493"><ele>789.2</ele><time>2017-02-21T13:43:05Z</time></trkpt><trkpt lat="42.618372" lon="-2.709515"><ele>790.6</ele><time>2017-02-21T13:43:11Z</time></trkpt><trkpt lat="42.618467" lon="-2.709555"><ele>792.5</ele><time>2017-02-21T13:43:18Z</time></trkpt><trkpt lat="42.618562" lon="-2.709588"><ele>794.7</ele><time>2017-02-21T13:43:24Z</time></trkpt><trkpt lat="42.618643" lon="-2.709642"><ele>797.0</ele><time>2017-02-21T13:43:30Z</time></trkpt><trkpt lat="42.618738" lon="-2.709702"><ele>799.0</ele><time>2017-02-21T13:43:37Z</time></trkpt><trkpt lat="42.618827" lon="-2.709757"><ele>800.6</ele><time>2017-02-21T13:43:43Z</time></trkpt><trkpt lat="42.618917" lon="-2.709792"><ele>801.1</ele><time>2017-02-21T13:43:49Z</time></trkpt><trkpt lat="42.619017" lon="-2.709813"><ele>802.4</ele><time>2017-02-21T13:43:54Z</time></trkpt><trkpt lat="42.61911" lon="-2.709842"><ele>804.4</ele><time>2017-02-21T13:44:00Z</time></trkpt><trkpt lat="42.619203" lon="-2.709875"><ele>805.5</ele><time>2017-02-21T13:44:06Z</time></trkpt><trkpt lat="42.619298" lon="-2.709902"><ele>806.4</ele><time>2017-02-21T13:44:13Z</time></trkpt><trkpt lat="42.619392" lon="-2.709925"><ele>807.1</ele><time>2017-02-21T13:44:19Z</time></trkpt><trkpt lat="42.619488" lon="-2.709937"><ele>806.2</ele><time>2017-02-21T13:44:25Z</time></trkpt><trkpt lat="42.619578" lon="-2.709973"><ele>804.6</ele><time>2017-02-21T13:44:31Z</time></trkpt><trkpt lat="42.619682" lon="-2.71"><ele>803.0</ele><time>2017-02-21T13:44:38Z</time></trkpt><trkpt lat="42.619783" lon="-2.709998"><ele>800.9</ele><time>2017-02-21T13:44:44Z</time></trkpt><trkpt lat="42.619888" lon="-2.710002"><ele>802.4</ele><time>2017-02-21T13:44:51Z</time></trkpt><trkpt lat="42.619978" lon="-2.709997"><ele>802.8</ele><time>2017-02-21T13:44:57Z</time></trkpt><trkpt lat="42.62008" lon="-2.70998"><ele>804.8</ele><time>2017-02-21T13:45:03Z</time></trkpt><trkpt lat="42.620173" lon="-2.709978"><ele>804.9</ele><time>2017-02-21T13:45:09Z</time></trkpt><trkpt lat="42.620275" lon="-2.709943"><ele>804.6</ele><time>2017-02-21T13:45:16Z</time></trkpt><trkpt lat="42.620365" lon="-2.709927"><ele>803.4</ele><time>2017-02-21T13:45:21Z</time></trkpt><trkpt lat="42.620458" lon="-2.709902"><ele>803.0</ele><time>2017-02-21T13:45:27Z</time></trkpt><trkpt lat="42.620548" lon="-2.709907"><ele>802.2</ele><time>2017-02-21T13:45:32Z</time></trkpt><trkpt lat="42.62065" lon="-2.709912"><ele>802.3</ele><time>2017-02-21T13:45:38Z</time></trkpt><trkpt lat="42.62075" lon="-2.709917"><ele>803.2</ele><time>2017-02-21T13:45:44Z</time></trkpt><trkpt lat="42.62084" lon="-2.709855"><ele>801.0</ele><time>2017-02-21T13:45:51Z</time></trkpt><trkpt lat="42.620918" lon="-2.709778"><ele>801.0</ele><time>2017-02-21T13:45:57Z</time></trkpt><trkpt lat="42.621008" lon="-2.709758"><ele>801.2</ele><time>2017-02-21T13:46:02Z</time></trkpt><trkpt lat="42.621105" lon="-2.709753"><ele>802.3</ele><time>2017-02-21T13:46:09Z</time></trkpt><trkpt lat="42.621207" lon="-2.709767"><ele>803.3</ele><time>2017-02-21T13:46:15Z</time></trkpt><trkpt lat="42.621305" lon="-2.709792"><ele>804.8</ele><time>2017-02-21T13:46:21Z</time></trkpt><trkpt lat="42.621402" lon="-2.709822"><ele>805.9</ele><time>2017-02-21T13:46:28Z</time></trkpt><trkpt lat="42.621495" lon="-2.709865"><ele>806.9</ele><time>2017-02-21T13:46:35Z</time></trkpt><trkpt lat="42.621583" lon="-2.709905"><ele>807.4</ele><time>2017-02-21T13:46:42Z</time></trkpt><trkpt lat="42.621662" lon="-2.70997"><ele>809.9</ele><time>2017-02-21T13:46:50Z</time></trkpt><trkpt lat="42.621743" lon="-2.710028"><ele>808.6</ele><time>2017-02-21T13:47:50Z</time></trkpt></trkseg></trk></gpx>